YYYY MM/DD hh:mm	Temp	Humid	W_dir	W_spd	Barom	T_int	Light	Power	Temp2	P2	Snow	T_mid	T_base	Precip
Year Date  Time 	(F)	(%)	(Deg)	(MPH)	("Hg)	(F)	/1000	(V)	(F)	-	(")	(F)	(F)	(")
2019 07/13 00:00	50.7	94.0	306.4	7.8	30.27	63.8	-0.3	13.02	-26.9	0	-0.3	53.3	57.1	3	13	0	0	0	68.9	62.9	0.0
2019 07/13 00:15	51.0	92.5	309.2	7.2	30.27	63.6	0.0	12.99	-31.0	0	-0.2	52.4	56.0	3	13	0	0	0	68.6	62.7	0.0
2019 07/13 00:30	51.2	92.2	311.1	6.6	30.26	63.4	0.0	13.01	-34.9	0	-0.1	52.4	55.3	3	13	0	0	0	68.4	62.7	0.0
2019 07/13 00:45	51.5	91.9	285.2	9.8	30.25	63.2	-0.3	13.01	-38.7	0	-0.2	52.4	55.9	8	13	0	0	0	68.0	62.4	0.0
2019 07/13 01:00	52.0	91.8	273.4	13.7	30.25	63.0	0.0	13.01	-42.3	0	-0.1	52.4	55.1	17	13	0	0	0	67.5	62.1	0.0
2019 07/13 01:15	51.5	92.1	288.8	9.2	30.24	62.7	0.0	12.99	-46.0	0	-0.3	51.5	54.8	25	13	0	0	0	67.3	61.9	0.0
2019 07/13 01:30	51.5	92.3	285.1	10.1	30.23	62.5	-0.3	12.98	-49.6	0	-0.2	51.5	53.9	31	13	0	0	0	66.8	61.7	0.0
2019 07/13 01:45	51.5	92.5	286.4	9.7	30.23	62.3	0.0	13.01	-53.2	0	-0.3	51.5	54.7	37	13	0	0	0	66.5	61.4	0.0
2019 07/13 02:00	51.4	92.5	290.1	9.8	30.22	62.1	0.0	13.01	-56.6	0	-0.2	51.5	55.1	63	13	0	0	0	66.1	61.2	0.0
2019 07/13 02:15	51.1	93.2	284.9	10.6	30.22	61.8	0.0	13.02	-59.8	0	-0.0	51.5	55.0	79	13	0	0	0	65.8	61.0	0.0
2019 07/13 02:30	51.0	93.2	294.1	9.5	30.21	61.5	0.0	12.99	-63.0	0	-0.0	51.5	55.1	146	13	0	0	0	65.7	60.9	0.0
2019 07/13 02:45	51.0	93.4	297.2	10.0	30.21	61.3	-0.3	13.01	-66.0	0	-0.1	52.4	54.6	198	13	0	0	0	65.3	60.5	0.0
2019 07/13 03:00	51.0	93.6	309.6	10.4	30.20	61.0	0.0	13.02	-69.0	0	-0.3	52.4	54.8	264	13	0	0	0	64.9	60.3	0.0
2019 07/13 03:15	50.4	94.9	313.6	13.4	30.19	60.8	0.0	13.01	-71.6	0	-0.3	51.5	54.6	322	13	0	0	0	64.6	60.1	0.0
2019 07/13 03:30	49.4	97.6	297.2	9.5	30.19	60.6	0.0	13.01	-74.3	0	-0.2	50.6	54.3	424	13	0	0	0	64.5	60.0	0.0
2019 07/13 03:45	48.8	100.2	304.7	9.7	30.19	60.4	0.0	13.01	-76.8	0	-0.2	50.6	54.2	552	13	0	0	0	64.1	59.9	0.0
2019 07/13 04:00	48.5	100.7	311.6	10.1	30.19	60.1	-0.3	12.99	-79.2	0	-0.2	50.6	54.1	630	13	0	0	0	63.9	59.6	0.0
2019 07/13 04:15	48.1	101.5	295.7	9.7	30.18	59.9	0.0	13.01	-81.5	0	-0.2	49.7	53.7	651	13	0	0	0	63.6	59.4	0.0
2019 07/13 04:30	48.5	101.8	311.9	12.7	30.18	59.7	-0.3	12.99	-83.8	0	-0.1	49.7	53.5	680	13	0	0	0	63.3	59.2	0.0
2019 07/13 04:45	49.4	98.8	312.2	13.3	30.17	59.4	0.0	13.01	-85.9	0	-0.0	50.6	53.9	695	13	0	0	0	63.1	59.1	0.0
2019 07/13 05:00	49.2	98.7	291.2	10.4	30.17	59.1	0.7	12.98	-88.0	0	-0.3	50.6	53.7	695	13	0	0	0	62.9	58.8	0.0
2019 07/13 05:15	48.4	100.4	292.3	9.4	30.17	58.9	9.2	13.02	-90.0	0	0.1	49.7	53.7	695	13	0	0	0	62.5	58.7	0.0
2019 07/13 05:30	48.2	101.8	309.5	8.6	30.17	58.6	87.5	12.99	-91.9	0	-0.0	49.7	52.9	695	13	0	0	0	62.4	58.6	0.0
2019 07/13 05:45	48.3	101.9	295.0	9.8	30.17	58.4	239.9	13.01	-93.6	0	-0.0	50.6	53.5	707	13	0	0	0	62.3	58.5	0.0
2019 07/13 06:00	48.2	102.1	299.5	9.8	30.17	58.2	272.4	13.01	-95.5	0	-0.1	50.6	53.4	709	13	0	0	0	62.0	58.4	0.0
2019 07/13 06:15	48.2	102.1	290.8	8.7	30.17	58.0	393.9	13.01	-97.0	0	-0.0	50.6	53.8	709	13	0	0	0	61.9	58.3	0.0
2019 07/13 06:30	48.3	102.1	286.9	8.8	30.17	57.8	438.3	13.01	-98.6	0	-0.3	51.5	53.9	722	13	0	0	0	61.7	58.2	0.0
2019 07/13 06:45	48.3	102.1	284.7	9.7	30.17	57.6	517.7	13.00	-100.0	0	-0.2	51.5	54.8	722	13	0	0	0	62.0	58.0	0.0
2019 07/13 07:00	48.3	102.2	294.0	8.8	30.17	57.4	524.2	12.97	-101.3	0	-0.2	51.5	54.0	722	13	0	0	0	61.7	58.0	0.0
2019 07/13 07:15	48.3	102.2	277.7	11.9	30.17	57.1	528.9	13.00	-102.5	0	-0.0	51.5	54.7	758	13	0	0	0	62.0	58.0	0.0
2019 07/13 07:30	48.3	102.2	266.5	9.2	30.17	56.9	709.0	13.01	-103.8	0	-0.2	51.5	54.3	758	13	0	0	0	61.8	58.0	0.0
2019 07/13 07:45	48.4	102.2	278.3	7.5	30.17	56.7	671.8	12.99	-104.7	0	-0.3	53.3	54.7	758	13	0	0	0	61.8	58.0	0.0
2019 07/13 08:00	49.0	102.2	280.4	8.8	30.18	56.5	745.0	13.03	-105.6	0	-0.7	56.0	56.7	758	13	0	0	0	61.7	57.9	0.0
2019 07/13 08:15	48.9	102.3	283.2	7.7	30.18	56.3	701.0	13.01	-106.3	0	-0.4	56.0	57.3	758	13	0	0	0	61.5	58.0	0.0
2019 07/13 08:30	49.6	102.3	278.1	6.0	30.18	56.3	707.0	12.99	-106.8	0	-0.8	56.9	57.8	758	13	0	0	0	61.4	58.2	0.0
2019 07/13 08:45	49.6	102.3	289.0	6.6	30.18	56.1	699.6	13.00	-107.1	0	-0.4	57.8	58.2	758	13	0	0	0	61.5	58.3	0.0
2019 07/13 09:00	49.9	102.4	280.9	10.1	30.18	56.1	715.0	12.98	-107.3	0	-0.1	57.8	57.9	758	13	0	0	0	61.8	58.4	0.0
2019 07/13 09:15	49.9	102.3	306.9	9.1	30.18	56.1	763.0	13.00	-107.2	0	-0.2	57.8	58.7	758	13	0	0	0	62.0	58.6	0.0
2019 07/13 09:30	50.8	100.4	314.6	7.3	30.18	56.0	674.8	13.00	-107.2	0	-0.2	57.8	59.3	758	13	0	0	0	62.0	58.6	0.0
2019 07/13 09:45	51.2	97.3	310.3	10.9	30.18	55.9	714.0	12.99	-107.1	0	-0.1	57.8	59.4	758	13	0	0	0	62.3	59.0	0.0
2019 07/13 10:00	51.7	92.8	295.6	10.5	30.18	55.9	741.0	12.99	-106.7	0	-0.7	58.7	60.4	758	13	0	0	0	62.9	59.3	0.0
2019 07/13 10:15	52.5	88.5	306.9	9.3	30.18	55.9	744.0	13.01	-106.3	0	-0.5	59.6	60.9	758	13	0	0	0	63.3	59.5	0.0
2019 07/13 10:30	54.4	88.7	250.6	6.0	30.19	55.9	737.0	13.01	-105.7	0	-997.0	-996.0	63.6	758	13	0	0	0	63.7	59.7	0.0
2019 07/13 10:45	53.8	84.1	296.7	9.9	30.19	56.0	703.0	13.01	-105.0	0	-997.0	-996.0	63.6	758	13	0	0	0	63.7	59.7	0.0
2019 07/13 11:00	53.7	85.6	289.2	9.7	30.19	56.1	788.0	12.99	-104.2	0	-997.0	-996.0	63.6	758	13	0	0	0	63.7	59.7	0.0
2019 07/13 11:15	55.4	81.8	312.6	10.6	30.20	56.1	727.0	13.00	-103.4	0	-997.0	-996.0	63.6	758	13	0	0	0	63.7	59.7	0.0
2019 07/13 11:30	55.1	84.4	355.5	6.9	30.20	56.3	793.0	12.98	-102.4	0	-997.0	-996.0	63.6	758	13	0	0	0	63.7	59.7	0.0
2019 07/13 11:45	56.7	76.4	232.5	10.2	30.20	56.3	707.0	12.99	-101.4	0	-0.1	64.1	64.5	758	13	0	0	0	69.4	62.8	0.0
2019 07/13 12:00	56.4	77.6	240.7	7.4	30.21	56.5	795.0	12.98	-100.2	0	-0.3	63.2	63.8	758	13	0	0	0	71.1	63.5	0.0
2019 07/13 12:15	57.2	73.0	238.9	9.7	30.21	56.7	788.0	13.01	-99.1	0	-1.0	64.1	65.0	758	13	0	0	0	72.3	64.1	0.0
2019 07/13 12:30	58.1	70.6	286.9	9.4	30.21	56.7	797.0	12.99	-98.0	0	-0.7	65.0	65.7	758	13	0	0	0	73.8	64.9	0.0
2019 07/13 12:45	57.7	73.4	268.7	11.9	30.21	56.9	747.0	12.99	-96.8	0	-0.5	65.0	66.5	758	13	0	0	0	74.6	65.6	0.0
2019 07/13 13:00	57.6	72.5	273.9	8.6	30.21	57.1	809.0	13.01	-95.6	0	-0.1	62.3	65.0	758	13	0	0	0	75.3	65.9	0.0
2019 07/13 13:15	59.7	70.3	210.8	3.2	30.22	57.3	804.0	13.01	-94.2	0	-0.1	62.3	64.7	758	13	0	0	0	75.7	66.0	0.0
2019 07/13 13:30	60.0	68.0	316.2	11.1	30.21	57.4	809.0	13.01	-92.9	0	-0.8	63.2	65.0	758	13	0	0	0	75.7	66.0	0.0
2019 07/13 13:45	58.2	73.1	258.1	7.5	30.22	57.6	748.0	12.99	-91.4	0	-0.4	63.2	65.4	760	13	0	0	0	75.7	65.8	0.0
2019 07/13 14:00	59.7	68.8	138.7	9.2	30.22	57.8	809.0	13.00	-90.0	0	-1.3	65.9	67.7	761	13	0	0	0	75.7	65.8	0.0
2019 07/13 14:15	60.0	67.8	320.2	14.2	30.22	58.0	814.0	13.01	-88.4	0	-0.2	65.9	67.0	761	13	0	0	0	76.0	65.9	0.0
2019 07/13 14:30	59.5	71.0	261.2	10.6	30.23	58.2	748.0	13.01	-86.7	0	-2.3	65.0	66.6	761	13	0	0	0	76.5	65.9	0.0
2019 07/13 14:45	61.6	64.9	323.4	6.5	30.22	58.4	726.0	12.99	-84.9	0	-0.2	65.9	67.2	761	13	0	0	0	76.3	65.9	0.0
2019 07/13 15:00	62.2	66.2	306.4	10.9	30.23	58.6	818.0	12.98	-83.0	0	-0.4	65.0	67.4	761	13	0	0	0	76.6	65.8	0.0
2019 07/13 15:15	61.0	65.5	290.0	10.7	30.23	58.8	807.0	12.99	-81.0	0	-0.4	65.9	67.8	761	13	0	0	0	76.5	65.9	0.0
2019 07/13 15:30	60.1	67.2	316.3	12.1	30.23	59.0	736.0	12.99	-79.0	0	-0.4	65.0	67.9	761	13	0	0	0	76.6	66.0	0.0
2019 07/13 15:45	60.0	68.6	302.7	13.2	30.23	59.2	786.0	12.99	-76.6	0	-0.6	65.9	68.2	761	13	0	0	0	77.0	66.0	0.0
2019 07/13 16:00	59.9	69.9	89.7	14.9	30.24	59.5	769.0	13.01	-74.1	0	-0.8	65.0	69.2	761	13	0	0	0	77.0	66.1	0.0
2019 07/13 16:15	60.4	66.9	308.7	10.8	30.23	59.7	822.0	12.99	-71.3	0	-0.1	65.9	69.0	761	13	0	0	0	77.4	66.0	0.0
2019 07/13 16:30	60.3	66.7	326.5	8.1	30.24	59.9	772.0	13.01	-68.3	0	-0.6	65.0	68.7	761	13	0	0	0	77.6	66.0	0.0
2019 07/13 16:45	59.7	67.2	285.6	12.7	30.23	60.1	817.0	13.01	-65.2	0	-0.4	65.9	69.4	761	13	0	0	0	77.6	66.0	0.0
2019 07/13 17:00	60.3	65.8	301.5	11.8	30.23	60.4	803.0	13.01	-61.9	0	-0.6	64.1	68.7	761	13	0	0	0	78.1	65.9	0.0
2019 07/13 17:15	59.7	65.8	237.5	7.5	30.24	60.8	743.0	13.00	-58.4	0	-0.5	62.3	67.2	763	13	0	0	0	78.0	65.8	0.0
2019 07/13 17:30	59.7	64.4	319.7	11.9	30.24	61.0	719.0	12.99	-54.8	0	-0.4	63.2	67.9	763	13	0	0	0	77.9	65.7	0.0
2019 07/13 17:45	60.0	65.1	270.1	9.5	30.24	61.2	754.0	12.99	-51.2	0	-0.7	62.3	67.7	763	13	0	0	0	77.9	65.6	0.0
2019 07/13 18:00	59.4	64.0	311.2	11.7	30.24	61.5	793.0	13.01	-47.6	0	-0.4	63.2	69.2	763	13	0	0	0	77.6	65.6	0.0
2019 07/13 18:15	58.8	65.3	289.2	11.7	30.24	61.9	852.0	13.01	-43.9	0	-0.5	62.3	69.2	763	13	0	0	0	78.0	65.6	0.0
2019 07/13 18:30	57.7	69.3	305.7	10.2	30.24	62.1	755.0	12.98	-40.2	0	-0.7	63.2	71.3	763	13	0	0	0	78.0	65.6	0.0
2019 07/13 18:45	58.0	70.2	312.7	12.6	30.24	62.3	776.0	13.01	-36.8	0	-0.4	62.3	70.5	763	13	0	0	0	78.0	65.6	0.0
2019 07/13 19:00	57.6	70.7	301.1	8.9	30.24	62.5	801.0	12.99	-33.6	0	-0.3	61.4	67.9	763	13	0	0	0	77.7	65.4	0.0
2019 07/13 19:15	57.6	71.0	297.8	14.9	30.25	62.7	901.0	13.03	-30.7	0	-0.5	61.4	67.8	763	13	0	0	0	77.2	65.3	0.0
2019 07/13 19:30	56.9	73.1	242.6	12.5	30.25	62.9	930.0	13.01	-28.0	0	-0.5	61.4	66.1	763	13	0	0	0	77.0	65.1	0.0
2019 07/13 19:45	56.2	76.1	181.8	8.0	30.26	63.1	926.0	13.01	-25.5	0	-0.7	60.5	64.6	763	13	0	0	0	76.3	64.9	0.0
2019 07/13 20:00	55.5	78.0	172.6	7.7	30.26	63.3	918.0	12.99	-23.0	0	-0.5	59.6	63.7	765	13	0	0	0	75.7	64.7	0.0
2019 07/13 20:15	54.5	82.6	321.4	12.1	30.26	63.4	678.1	13.02	-20.9	0	-0.3	57.8	63.2	765	13	0	0	0	75.1	64.5	0.0
2019 07/13 20:30	53.7	85.5	175.8	10.8	30.26	63.5	858.0	13.01	-19.4	0	-0.3	56.9	61.6	767	13	0	0	0	74.6	64.2	0.0
2019 07/13 20:45	52.4	89.3	243.4	10.7	30.26	63.7	310.7	13.01	-18.0	0	-0.1	55.1	60.4	768	13	0	0	0	74.0	64.0	0.0
2019 07/13 21:00	51.7	91.7	11.2	8.2	30.27	63.8	93.3	12.99	-17.4	0	-0.0	54.2	60.0	768	13	0	0	0	73.6	63.8	0.0
2019 07/13 21:15	51.2	93.9	302.9	10.0	30.27	63.8	13.2	12.97	-17.4	0	-0.2	54.2	59.1	768	13	0	0	0	73.0	63.5	0.0
2019 07/13 21:30	50.9	94.2	267.5	11.3	30.28	63.9	2.0	12.97	-18.3	0	-0.3	53.3	58.0	772	13	0	0	0	72.7	63.3	0.0
2019 07/13 21:45	50.6	92.3	323.0	14.5	30.28	63.9	0.3	13.01	-19.7	0	-0.3	52.4	58.0	779	13	0	0	0	72.1	63.1	0.0
2019 07/13 22:00	50.1	92.4	299.2	9.5	30.28	63.8	0.0	13.00	-21.6	0	-0.4	52.4	56.9	788	13	0	0	0	71.4	62.9	0.0
2019 07/13 22:15	49.6	93.7	307.0	9.2	30.28	63.8	0.0	13.00	-24.0	0	-0.3	51.5	56.7	805	13	0	0	0	70.9	62.7	0.0
2019 07/13 22:30	49.4	91.5	302.6	11.2	30.28	63.7	-0.3	12.97	-26.8	0	-0.3	51.5	56.8	816	13	0	0	0	70.3	62.4	0.0
2019 07/13 22:45	49.3	87.1	302.5	10.4	30.28	63.6	-0.3	12.99	-29.9	0	-0.0	50.6	56.0	840	13	0	0	0	69.6	62.2	0.0
2019 07/13 23:00	49.3	86.7	302.9	9.2	30.28	63.5	0.0	12.99	-33.2	0	-0.4	50.6	55.5	856	13	0	0	0	69.4	62.0	0.0
2019 07/13 23:15	49.2	86.4	283.0	11.4	30.28	63.3	0.0	12.99	-36.7	0	-0.2	50.6	55.1	889	13	0	0	0	68.7	61.8	0.0
2019 07/13 23:30	49.0	88.1	295.3	8.9	30.28	63.1	-0.3	12.98	-40.1	0	-0.2	49.7	54.9	917	13	0	0	0	68.2	61.5	0.0
2019 07/13 23:45	48.8	89.0	266.2	8.8	30.28	62.9	0.0	13.00	-43.8	0	-0.5	50.6	55.0	961	13	0	0	0	67.8	61.2	0.0
2019 07/14 00:00	48.7	89.2	284.5	10.0	30.28	62.7	0.0	13.00	-47.5	0	-0.0	49.7	54.7	1000	13	0	0	0	67.3	61.0	0.0
2019 07/14 00:15	48.7	89.5	281.6	9.2	30.27	62.5	0.0	13.00	-51.2	0	-0.1	49.7	54.7	1064	13	0	0	0	66.9	60.7	0.0
2019 07/14 00:30	48.5	89.6	279.7	8.6	30.27	62.3	0.0	13.01	-54.9	0	-0.3	49.7	54.6	1122	13	0	0	0	66.6	60.6	0.0
2019 07/14 00:45	48.9	88.7	276.9	9.2	30.27	62.1	-0.3	12.99	-58.4	0	-0.0	50.6	54.3	1208	13	0	0	0	66.3	60.4	0.0
2019 07/14 01:00	48.9	87.9	275.0	8.5	30.26	61.9	0.0	12.99	-62.0	0	0.0	50.6	54.1	1263	13	0	0	0	65.9	60.2	0.0
2019 07/14 01:15	49.3	86.6	249.6	8.1	30.26	61.6	0.0	13.01	-65.4	0	-0.2	50.6	53.7	1298	13	0	0	0	65.6	60.0	0.0
2019 07/14 01:30	49.3	87.9	248.3	7.7	30.26	61.3	0.0	13.01	-68.8	0	-0.2	50.6	53.2	1306	13	0	0	0	65.6	60.0	0.0
2019 07/14 01:45	49.3	88.8	233.9	7.7	30.25	61.0	0.0	12.99	-72.0	0	-0.2	50.6	53.0	1340	13	0	0	0	64.9	59.6	0.0
2019 07/14 02:00	49.8	88.6	237.0	9.3	30.25	60.8	0.0	13.00	-75.1	0	-0.2	50.6	53.3	1363	13	0	0	0	64.6	59.3	0.0
2019 07/14 02:15	49.8	89.7	215.6	8.9	30.25	60.5	0.0	13.01	-77.9	0	-0.1	50.6	51.7	1392	13	0	0	0	64.2	59.2	0.0
2019 07/14 02:30	49.8	86.8	236.8	8.2	30.25	60.1	0.0	12.99	-80.5	0	-0.3	50.6	51.2	1407	13	0	0	0	64.0	59.1	0.0
2019 07/14 02:45	49.9	81.7	245.0	6.9	30.25	59.9	0.0	13.00	-83.1	0	-0.4	50.6	50.8	1447	13	0	0	0	63.7	58.8	0.0
2019 07/14 03:00	49.9	81.7	244.9	8.9	30.24	59.7	0.0	12.99	-85.4	0	-0.3	50.6	50.2	1482	13	0	0	0	63.3	58.6	0.0
2019 07/14 03:15	50.1	80.1	254.6	9.9	30.24	59.5	0.0	12.99	-87.8	0	-0.3	50.6	49.6	1529	13	0	0	0	62.9	58.4	0.0
2019 07/14 03:30	49.9	78.9	242.7	8.9	30.24	59.2	0.0	12.99	-89.8	0	-0.4	50.6	49.5	1582	13	0	0	0	62.8	58.3	0.0
2019 07/14 03:45	49.8	81.5	247.8	10.7	30.23	59.0	0.0	12.98	-91.8	0	-0.6	50.6	48.9	1611	13	0	0	0	62.5	58.2	0.0
2019 07/14 04:00	49.4	83.9	250.5	10.1	30.23	58.6	0.0	13.00	-93.7	0	-0.2	50.6	48.3	1636	13	0	0	0	62.2	57.8	0.0
2019 07/14 04:15	49.6	81.6	249.7	9.9	30.23	58.4	0.0	12.99	-95.6	0	-0.2	49.7	47.6	1648	13	0	0	0	61.8	57.7	0.0
2019 07/14 04:30	49.5	82.4	241.4	9.7	30.23	58.2	0.0	12.99	-97.3	0	-0.4	51.5	47.6	1664	13	0	0	0	61.4	57.5	0.0
2019 07/14 04:45	49.3	87.1	235.9	8.3	30.23	58.0	0.0	12.99	-99.0	0	-0.0	50.6	47.1	1664	13	0	0	0	61.2	57.3	0.0
2019 07/14 05:00	49.0	91.6	254.5	9.9	30.23	57.8	0.7	12.99	-100.5	0	-0.4	50.6	46.7	1664	13	0	0	0	60.9	57.0	0.0
2019 07/14 05:15	49.2	84.1	271.9	8.5	30.23	57.5	6.8	13.00	-101.9	0	-0.4	50.6	46.2	1664	13	0	0	0	60.5	56.8	0.0
2019 07/14 05:30	49.3	83.5	272.1	6.9	30.23	57.3	53.3	12.99	-103.4	0	-0.2	50.6	46.0	1664	13	0	0	0	60.4	56.8	0.0
2019 07/14 05:45	49.4	83.5	278.9	6.7	30.24	57.0	173.7	13.01	-104.7	0	-0.1	50.6	46.1	1667	13	0	0	0	60.2	56.6	0.0
2019 07/14 06:00	49.2	85.2	289.8	5.5	30.24	56.7	254.5	13.01	-106.1	0	-0.2	50.6	45.6	1668	13	0	0	0	59.9	56.4	0.0
2019 07/14 06:15	49.2	86.2	284.3	4.4	30.23	56.5	342.0	12.99	-107.3	0	-0.3	50.6	45.7	1673	13	0	0	0	59.6	56.2	0.0
2019 07/14 06:30	49.2	87.7	304.2	3.8	30.23	56.3	417.6	12.99	-108.5	0	-0.2	50.6	45.6	1674	13	0	0	0	59.5	56.0	0.0
2019 07/14 06:45	49.0	88.7	311.0	4.2	30.23	56.1	507.9	12.99	-109.6	0	-0.4	51.5	45.9	1674	13	0	0	0	59.3	55.9	0.0
2019 07/14 07:00	49.3	87.3	316.8	3.3	30.23	55.9	586.6	13.02	-110.6	0	-0.4	54.2	46.7	1674	13	0	0	0	59.1	55.8	0.0
2019 07/14 07:15	50.3	71.0	317.0	0.5	30.23	55.6	613.7	12.99	-111.5	0	-0.4	54.2	48.5	1674	13	0	0	0	59.2	55.6	0.0
2019 07/14 07:30	51.2	53.1	336.7	0.0	30.23	55.6	641.9	12.99	-112.2	0	-0.3	55.1	50.1	1674	13	0	0	0	59.1	55.5	0.0
2019 07/14 07:45	53.0	52.7	351.4	0.0	30.23	55.4	658.5	12.99	-112.8	0	-0.7	57.8	52.5	1674	13	0	0	0	59.2	55.5	0.0
2019 07/14 08:00	53.2	51.9	351.1	0.0	30.23	55.2	667.0	13.01	-113.0	0	-1.2	60.5	54.8	1674	13	0	0	0	59.1	55.4	0.0
2019 07/14 08:15	53.4	52.5	316.9	0.0	30.23	55.2	669.7	12.99	-113.3	0	-1.2	60.5	55.7	1674	13	0	0	0	59.1	55.5	0.0
2019 07/14 08:30	53.9	56.3	6.5	0.0	30.24	55.1	683.3	13.00	-113.4	0	-1.1	60.5	57.6	1674	13	0	0	0	59.1	55.6	0.0
2019 07/14 08:45	54.0	56.4	307.7	0.0	30.24	55.0	683.0	12.99	-113.4	0	-0.9	61.4	58.3	1674	13	0	0	0	59.2	55.9	0.0
2019 07/14 09:00	54.5	56.2	290.0	0.0	30.24	55.0	686.7	13.00	-113.3	0	-0.3	60.5	59.1	1674	13	0	0	0	59.5	56.4	0.0
2019 07/14 09:15	55.0	50.6	294.9	0.0	30.24	55.0	691.4	13.01	-113.2	0	-0.3	61.4	59.2	1674	13	0	0	0	60.5	56.4	0.0
2019 07/14 09:30	55.5	49.9	294.4	0.0	30.24	55.0	698.9	12.99	-112.8	0	-0.2	60.5	60.1	1674	13	0	0	0	60.6	56.5	0.0
2019 07/14 09:45	55.5	51.2	349.1	0.6	30.24	55.1	706.0	13.01	-112.3	0	-0.1	60.5	60.9	1674	13	0	0	0	61.1	56.8	0.0
2019 07/14 10:00	57.1	53.6	290.0	0.7	30.25	55.2	714.0	13.01	-111.7	0	-0.4	61.4	61.8	1674	13	0	0	0	61.8	57.2	0.0
2019 07/14 10:15	57.1	48.0	224.1	0.1	30.25	55.2	723.0	12.99	-111.0	0	-0.6	62.3	62.0	1674	13	0	0	0	62.5	57.5	0.0
2019 07/14 10:30	57.8	41.5	233.1	4.1	30.25	55.4	730.0	13.01	-110.0	0	-0.5	62.3	63.1	1674	13	0	0	0	63.7	58.0	0.0
2019 07/14 10:45	57.2	49.5	297.0	4.7	30.25	55.4	737.0	13.01	-109.1	0	0.2	62.3	63.8	1674	13	0	0	0	64.7	58.7	0.0
2019 07/14 11:00	58.0	49.4	250.7	3.5	30.25	55.6	742.0	12.99	-108.0	0	-0.4	64.1	63.7	1674	13	0	0	0	66.0	59.5	0.0
2019 07/14 11:15	58.4	47.5	292.2	6.2	30.26	55.9	746.0	13.00	-106.9	0	-0.2	63.2	65.1	1674	13	0	0	0	67.3	60.5	0.0
2019 07/14 11:30	58.4	49.1	285.7	6.2	30.26	56.1	750.0	12.99	-105.7	0	-1.0	65.0	64.9	1674	13	0	0	0	68.1	60.9	0.0
2019 07/14 11:45	60.8	45.7	325.5	3.9	30.26	56.2	755.0	12.99	-104.4	0	-0.4	66.8	65.7	1674	13	0	0	0	69.9	61.5	0.0
2019 07/14 12:00	60.0	48.0	261.8	8.5	30.26	56.5	758.0	13.01	-102.9	0	-0.9	66.8	66.7	1674	13	0	0	0	71.9	62.4	0.0
2019 07/14 12:15	60.1	49.3	244.3	7.7	30.27	56.7	759.0	13.01	-101.4	0	-0.2	67.7	68.5	1674	13	0	0	0	72.9	63.6	0.0
2019 07/14 12:30	60.8	51.8	237.6	11.2	30.27	56.9	763.0	13.01	-100.0	0	-0.5	67.7	67.4	1674	13	0	0	0	73.7	63.8	0.0
2019 07/14 12:45	61.9	49.0	297.3	8.3	30.28	57.1	769.0	13.01	-98.4	0	-0.5	66.8	68.1	1674	13	0	0	0	74.7	64.5	0.0
2019 07/14 13:00	62.1	48.0	235.5	6.1	30.28	57.4	773.0	13.01	-96.7	0	-1.1	68.6	68.7	1674	13	0	0	0	75.6	65.3	0.0
2019 07/14 13:15	63.1	47.5	305.9	9.8	30.28	57.6	780.0	13.00	-95.1	0	-0.7	69.5	69.6	1674	13	0	0	0	76.2	65.9	0.0
2019 07/14 13:30	63.3	50.0	293.7	7.9	30.28	57.8	781.0	13.00	-93.3	0	-0.5	69.5	69.6	1681	13	0	0	0	76.7	66.4	0.0
2019 07/14 13:45	63.9	47.4	252.7	11.8	30.28	58.0	785.0	12.99	-91.4	0	-0.5	71.3	71.0	1681	13	0	0	0	77.4	66.7	0.0
2019 07/14 14:00	63.9	48.2	311.6	6.1	30.28	58.2	784.0	13.01	-89.5	0	-0.9	69.5	70.5	1681	13	0	0	0	77.7	67.2	0.0
2019 07/14 14:15	64.1	51.7	200.0	6.1	30.29	58.5	784.0	13.01	-87.5	0	-0.2	67.7	69.9	1681	13	0	0	0	78.5	67.2	0.0
2019 07/14 14:30	65.8	50.4	262.7	7.4	30.29	58.9	808.0	13.01	-85.4	0	-0.4	70.4	70.9	1681	13	0	0	0	78.3	67.2	0.0
2019 07/14 14:45	66.4	50.6	204.4	3.2	30.29	59.1	804.0	13.01	-83.1	0	-0.7	70.4	71.0	1681	13	0	0	0	78.5	66.9	0.0
2019 07/14 15:00	66.0	43.6	169.5	7.7	30.30	59.3	814.0	13.01	-80.7	0	-1.1	70.4	72.7	1681	13	0	0	0	78.6	66.9	0.0
2019 07/14 15:15	64.3	47.3	237.3	5.8	30.30	59.6	818.0	13.01	-78.0	0	-0.4	70.4	73.8	1681	13	0	0	0	78.6	66.9	0.0
2019 07/14 15:30	66.4	42.9	211.8	7.7	30.30	59.9	800.0	13.01	-75.2	0	-0.5	71.3	73.1	1681	13	0	0	0	78.9	67.2	0.0
2019 07/14 15:45	64.8	44.2	234.9	13.3	30.30	60.1	719.0	13.01	-72.0	0	-0.6	71.3	72.0	1681	13	0	0	0	79.2	67.0	0.0
2019 07/14 16:00	65.3	49.2	227.8	9.3	30.30	60.5	817.0	12.99	-68.6	0	-0.3	70.4	73.7	1681	13	0	0	0	79.2	67.0	0.0
2019 07/14 16:15	66.4	45.7	160.6	8.6	30.31	60.8	812.0	13.00	-64.9	0	-0.2	71.3	73.8	1681	13	0	0	0	79.8	67.3	0.0
2019 07/14 16:30	63.8	47.4	228.8	10.4	30.31	61.1	805.0	13.01	-60.9	0	-0.5	70.4	73.9	1681	13	0	0	0	79.9	67.3	0.0
2019 07/14 16:45	63.3	53.3	297.9	14.4	30.31	61.4	788.0	12.99	-56.6	0	-0.5	69.5	74.0	1681	13	0	0	0	80.1	67.3	0.0
2019 07/14 17:00	63.9	52.6	278.4	9.3	30.31	61.8	802.0	12.98	-52.0	0	-1.1	69.5	74.5	1681	13	0	0	0	80.3	67.3	0.0
2019 07/14 17:15	63.3	54.3	284.5	10.7	30.31	62.1	803.0	13.01	-47.1	0	-0.3	68.6	73.7	1681	13	0	0	0	80.8	67.3	0.0
2019 07/14 17:30	63.6	53.5	298.2	12.2	30.31	62.5	798.0	12.99	-42.0	0	-0.4	68.6	74.4	1681	13	0	0	0	81.0	67.4	0.0
2019 07/14 17:45	63.3	54.4	253.9	12.5	30.31	62.8	796.0	12.99	-36.8	0	-0.4	68.6	73.7	1683	13	0	0	0	81.1	67.4	0.0
2019 07/14 18:00	63.1	53.9	58.2	9.1	30.32	63.1	795.0	13.01	-31.3	0	-0.4	67.7	74.0	1683	13	0	0	0	81.2	67.4	0.0
2019 07/14 18:15	62.8	52.2	148.6	11.3	30.31	63.5	845.0	13.00	-25.5	0	-0.8	66.8	74.1	1684	13	0	0	0	81.3	67.3	0.0
2019 07/14 18:30	62.1	52.9	287.7	13.8	30.32	63.8	739.0	12.99	-19.5	0	-0.6	66.8	74.8	1685	13	0	0	0	81.2	67.3	0.0
2019 07/14 18:45	61.6	54.0	255.1	9.3	30.33	64.1	746.0	13.01	-13.5	0	-0.4	65.9	74.2	1693	13	0	0	0	81.0	67.2	0.0
2019 07/14 19:00	61.0	56.2	188.9	8.8	30.33	64.5	775.0	13.00	-7.8	0	-0.5	65.0	74.9	1700	13	0	0	0	80.8	67.0	0.0
2019 07/14 19:15	60.8	56.5	157.3	11.1	30.34	64.8	931.0	13.01	-2.5	0	-0.5	64.1	72.2	1714	13	0	0	0	80.3	66.8	0.0
2019 07/14 19:30	59.5	57.9	299.9	8.6	30.34	65.1	926.0	12.99	2.5	0	-0.6	63.2	69.6	1730	13	0	0	0	79.9	66.7	0.0
2019 07/14 19:45	58.5	60.4	289.2	8.3	30.35	65.3	921.0	13.01	7.0	0	-0.4	62.3	68.8	1732	13	0	0	0	79.1	66.5	0.0
2019 07/14 20:00	58.1	59.6	266.9	6.1	30.35	65.5	921.0	13.01	10.9	0	-0.3	61.4	67.0	1735	13	0	0	0	78.4	66.1	0.0
2019 07/14 20:15	57.5	63.3	234.8	7.9	30.35	65.8	701.0	12.99	14.2	0	-0.3	60.5	65.8	1741	13	0	0	0	77.6	65.9	0.0
2019 07/14 20:30	56.2	66.2	308.1	5.8	30.35	66.0	691.3	13.01	16.8	0	-0.3	59.6	65.6	1742	13	0	0	0	77.0	65.6	0.0
2019 07/14 20:45	55.4	68.6	323.2	11.7	30.36	66.2	431.5	12.97	18.4	0	0.0	57.8	63.9	1742	13	0	0	0	76.3	65.3	0.0
2019 07/14 21:00	54.4	71.7	299.0	9.9	30.37	66.3	100.4	13.00	19.4	0	-0.4	57.8	62.7	1742	13	0	0	0	76.3	65.3	0.0
2019 07/14 21:15	53.8	73.2	297.3	14.9	30.37	66.4	18.7	13.01	19.6	0	-0.4	56.9	62.3	1743	13	0	0	0	74.9	64.8	0.0
2019 07/14 21:30	53.4	74.6	310.2	11.5	30.37	66.5	1.4	12.98	19.1	0	-0.3	56.0	62.0	1743	13	0	0	0	74.3	64.5	0.0
2019 07/14 21:45	53.2	75.3	263.5	13.3	30.37	66.5	0.0	13.00	17.9	0	-0.4	56.0	62.4	1745	13	0	0	0	73.7	64.1	0.0
2019 07/14 22:00	52.9	75.3	268.6	10.7	30.38	66.6	0.0	12.99	15.9	0	-0.3	56.0	61.5	1745	13	0	0	0	73.1	63.9	0.0
2019 07/14 22:15	52.4	76.7	279.1	9.5	30.38	66.6	-0.3	13.00	13.2	0	-0.1	55.1	60.3	1745	13	0	0	0	72.6	63.7	0.0
2019 07/14 22:30	52.4	76.5	308.9	6.9	30.38	66.4	0.0	13.01	9.9	0	-0.2	55.1	59.6	1745	13	0	0	0	72.2	63.6	0.0
2019 07/14 22:45	52.4	75.4	254.3	6.9	30.38	66.4	0.0	13.01	5.9	0	-0.2	55.1	58.4	1745	13	0	0	0	71.8	63.3	0.0
2019 07/14 23:00	52.2	76.3	266.9	7.4	30.38	66.3	0.0	13.02	1.5	0	-0.2	54.2	59.4	1745	13	0	0	0	71.2	63.1	0.0
2019 07/14 23:15	52.0	77.1	259.2	8.6	30.37	66.1	-0.3	13.01	-3.1	0	-0.2	54.2	58.9	1745	13	0	0	0	70.8	62.9	0.0
2019 07/14 23:30	52.2	75.0	271.1	10.0	30.37	66.0	0.0	13.01	-7.6	0	-0.2	54.2	57.5	1745	13	0	0	0	70.2	62.8	0.0
2019 07/14 23:45	52.3	75.1	264.5	11.5	30.36	65.7	0.0	12.99	-12.2	0	-0.2	54.2	56.8	1746	13	0	0	0	69.5	62.5	0.0
2019 07/15 00:00	52.2	75.0	217.0	11.3	30.36	65.5	0.0	12.99	-16.8	0	-0.3	54.2	57.7	1747	13	0	0	0	69.0	62.3	0.0
2019 07/15 00:15	52.6	73.4	269.2	13.2	30.35	65.4	0.0	12.99	-21.3	0	-0.3	53.3	57.0	1748	13	0	0	0	68.5	62.2	0.0
2019 07/15 00:30	52.2	74.6	243.3	12.6	30.35	65.1	0.0	13.01	-25.7	0	-0.4	53.3	57.0	1749	13	0	0	0	68.5	62.2	0.0
2019 07/15 00:45	51.8	75.2	238.7	16.2	30.35	64.9	0.0	13.01	-29.9	0	-0.4	52.4	54.7	1750	13	0	0	0	67.8	61.8	0.0
2019 07/15 01:00	51.6	76.5	263.8	14.9	30.35	64.7	-0.3	12.99	-33.9	0	-0.4	52.4	54.0	1750	13	0	0	0	67.5	61.5	0.0
2019 07/15 01:15	51.4	77.2	267.7	12.9	30.35	64.5	0.0	12.99	-37.8	0	-0.2	52.4	53.3	1753	13	0	0	0	67.5	61.5	0.0
2019 07/15 01:30	50.5	79.7	283.8	17.8	30.34	64.3	-0.3	13.01	-41.5	0	-0.2	52.4	53.8	1754	13	0	0	0	67.0	61.3	0.0
2019 07/15 01:45	49.5	84.5	234.7	13.9	30.33	64.0	-0.3	12.99	-45.3	0	0.1	51.5	53.4	1754	13	0	0	0	67.0	61.3	0.0
2019 07/15 02:00	48.9	86.7	240.0	15.5	30.33	63.8	0.0	13.01	-49.0	0	-0.2	51.5	54.0	1754	13	0	0	0	67.0	61.3	0.0
2019 07/15 02:15	48.5	88.3	179.0	16.2	30.33	63.5	0.0	12.99	-52.7	0	-0.0	50.6	53.5	1758	13	0	0	0	65.9	60.6	0.0
2019 07/15 02:30	48.5	89.2	231.5	16.1	30.32	63.3	0.0	12.99	-56.2	0	-0.0	50.6	54.0	1776	13	0	0	0	65.7	60.5	0.0
2019 07/15 02:45	47.9	92.7	229.3	16.5	30.32	63.0	0.0	12.99	-59.8	0	-0.1	50.6	52.9	1776	13	0	0	0	65.3	60.3	0.0
2019 07/15 03:00	47.5	94.7	240.4	17.2	30.31	62.7	0.0	12.98	-63.3	0	-0.2	50.6	53.9	1831	13	0	0	0	65.0	60.1	0.0
2019 07/15 03:15	47.1	96.7	230.1	17.1	30.31	62.5	-0.3	13.00	-66.8	0	-0.2	50.6	53.4	1858	13	0	0	0	64.7	60.0	0.0
2019 07/15 03:30	46.8	97.8	232.4	16.8	30.30	62.2	-0.3	12.99	-70.2	0	-0.2	50.6	53.3	1897	13	0	0	0	64.6	59.9	0.0
2019 07/15 03:45	46.6	99.1	240.5	16.0	30.30	61.9	0.0	13.01	-73.5	0	-0.0	49.7	53.7	1920	13	0	0	0	64.2	59.7	0.0
2019 07/15 04:00	46.4	100.1	243.8	16.4	30.29	61.6	0.0	12.99	-76.6	0	-0.0	49.7	53.5	1921	13	0	0	0	63.9	59.5	0.0
2019 07/15 04:15	46.2	100.8	224.0	17.4	30.29	61.3	-0.3	13.00	-79.6	0	-0.1	49.7	53.2	1925	13	0	0	0	63.6	59.3	0.0
2019 07/15 04:30	46.6	100.5	234.8	17.4	30.28	61.0	0.0	12.99	-82.5	0	-0.1	49.7	53.5	1930	13	0	0	0	63.6	59.3	0.0
2019 07/15 04:45	46.7	96.5	228.2	18.6	30.28	60.8	0.0	13.01	-85.3	0	-0.2	49.7	53.1	1930	13	0	0	0	63.1	59.1	0.0
2019 07/15 05:00	46.5	96.7	221.0	18.5	30.28	60.5	0.0	12.99	-87.9	0	-0.0	49.7	53.2	1930	13	0	0	0	62.9	59.0	0.0
2019 07/15 05:15	46.2	97.0	237.1	17.9	30.28	60.1	2.0	12.99	-90.4	0	-0.1	49.7	53.0	1931	13	0	0	0	62.7	58.8	0.0
2019 07/15 05:30	46.1	97.3	234.7	18.4	30.28	59.9	17.0	12.99	-92.9	0	-0.2	49.7	53.0	1932	13	0	0	0	62.4	58.7	0.0
2019 07/15 05:45	45.9	99.8	238.9	17.1	30.27	59.5	80.1	12.99	-95.1	0	-0.2	49.7	53.2	1932	13	0	0	0	62.2	58.6	0.0
2019 07/15 06:00	45.7	98.6	235.3	14.8	30.27	59.3	125.9	13.00	-97.3	0	-0.2	49.7	53.3	1932	13	0	0	0	62.1	58.5	0.0
2019 07/15 06:15	45.3	100.1	238.6	17.1	30.27	59.0	218.8	13.00	-99.2	0	-0.1	48.8	53.1	1932	13	0	0	0	61.9	58.4	0.0
2019 07/15 06:30	45.7	95.1	235.9	16.6	30.27	58.6	348.1	12.99	-101.1	0	-0.0	48.8	53.3	1932	13	0	0	0	61.8	58.3	0.0
2019 07/15 06:45	45.7	94.9	229.3	15.5	30.26	58.4	377.6	13.01	-102.9	0	-0.2	49.7	53.4	1932	13	0	0	0	61.7	58.3	0.0
2019 07/15 07:00	45.4	95.6	247.0	15.5	30.26	58.2	348.1	13.01	-104.6	0	-0.2	49.7	52.9	1932	13	0	0	0	61.4	58.2	0.0
2019 07/15 07:15	45.6	93.0	222.3	16.2	30.26	57.8	427.5	13.01	-106.2	0	-0.2	49.7	53.3	1932	13	0	0	0	61.4	58.0	0.0
2019 07/15 07:30	45.5	95.2	243.5	14.4	30.26	57.6	441.4	12.99	-107.7	0	-0.2	49.7	53.5	1932	13	0	0	0	61.3	58.0	0.0
2019 07/15 07:45	45.4	95.6	235.7	14.4	30.26	57.4	470.2	13.01	-108.9	0	-0.1	49.7	53.2	1932	13	0	0	0	61.1	57.9	0.0
2019 07/15 08:00	45.5	94.9	232.1	15.4	30.26	57.1	509.6	12.99	-110.2	0	-0.1	49.7	53.7	1932	13	0	0	0	61.1	57.9	0.0
2019 07/15 08:15	45.5	96.4	258.9	14.0	30.25	56.8	592.0	12.99	-111.3	0	0.0	49.7	53.8	1932	13	0	0	0	61.1	57.8	0.0
2019 07/15 08:30	45.6	95.3	263.3	14.1	30.25	56.5	642.9	13.01	-112.4	0	-0.2	50.6	53.8	1932	13	0	0	0	61.0	57.8	0.0
2019 07/15 08:45	46.5	93.5	259.3	11.7	30.25	56.3	650.4	13.01	-113.4	0	-0.3	51.5	55.1	1932	13	0	0	0	61.1	57.8	0.0
2019 07/15 09:00	46.8	91.5	247.0	11.4	30.25	56.1	661.9	12.99	-114.3	0	-0.4	52.4	56.4	1932	13	0	0	0	61.0	57.7	0.0
2019 07/15 09:15	46.8	90.4	234.3	13.4	30.24	55.9	646.6	13.02	-115.0	0	-0.4	53.3	55.7	1932	13	0	0	0	61.0	57.7	0.0
2019 07/15 09:30	47.2	90.6	247.5	12.9	30.24	55.8	676.5	13.01	-115.6	0	-0.5	53.3	55.7	1932	13	0	0	0	61.0	57.8	0.0
2019 07/15 09:45	47.0	91.1	247.8	14.1	30.24	55.6	604.2	12.99	-116.2	0	-0.2	52.4	56.5	1932	13	0	0	0	61.1	57.8	0.0
2019 07/15 10:00	47.0	90.7	240.4	12.8	30.24	55.4	652.1	13.01	-116.8	0	-0.2	52.4	56.1	1932	13	0	0	0	61.2	57.9	0.0
2019 07/15 10:15	47.3	88.3	250.4	11.9	30.24	55.2	695.8	13.02	-117.2	0	-0.2	53.3	56.4	1932	13	0	0	0	61.4	58.0	0.0
2019 07/15 10:30	47.9	85.5	246.6	12.2	30.24	55.2	725.0	12.99	-117.7	0	-0.2	54.2	57.7	1932	13	0	0	0	61.5	58.0	0.0
2019 07/15 10:45	48.5	84.4	238.9	14.6	30.24	55.0	740.0	12.98	-118.0	0	-0.8	55.1	58.0	1932	13	0	0	0	62.0	58.2	0.0
2019 07/15 11:00	49.5	84.9	217.8	17.4	30.24	54.8	775.0	13.00	-118.4	0	-0.6	56.9	61.1	1932	13	0	0	0	62.5	58.5	0.0
2019 07/15 11:15	49.6	84.7	247.7	14.5	30.23	54.8	776.0	13.01	-118.7	0	-0.1	56.9	61.0	1932	13	0	0	0	63.3	58.8	0.0
2019 07/15 11:30	49.5	81.1	230.0	18.8	30.23	54.8	756.0	13.01	-118.8	0	-1.1	57.8	63.4	1932	13	0	0	0	64.6	59.6	0.0
2019 07/15 11:45	49.5	84.5	238.5	17.6	30.24	54.6	769.0	13.02	-118.9	0	-0.6	56.9	61.5	1932	13	0	0	0	66.1	60.7	0.0
2019 07/15 12:00	51.1	78.0	243.9	8.3	30.24	54.6	762.0	12.99	-118.8	0	0.1	57.8	62.5	1932	13	0	0	0	67.4	61.8	0.0
2019 07/15 12:15	50.3	81.4	244.3	16.0	30.24	54.6	747.0	13.00	-118.8	0	-0.9	56.9	60.6	1932	13	0	0	0	68.3	62.2	0.0
2019 07/15 12:30	52.0	81.1	206.4	5.9	30.24	54.6	778.0	12.99	-118.5	0	-0.4	57.8	61.9	1932	13	0	0	0	68.5	62.3	0.0
2019 07/15 12:45	50.6	84.3	241.8	13.2	30.24	54.6	765.0	12.99	-118.4	0	-0.6	56.9	62.0	1932	13	0	0	0	69.1	62.4	0.0
2019 07/15 13:00	51.5	83.9	226.3	12.2	30.24	54.6	748.0	13.01	-118.0	0	-0.4	57.8	62.2	1932	13	0	0	0	69.6	62.8	0.0
2019 07/15 13:15	51.9	83.8	227.6	14.9	30.24	54.7	760.0	12.99	-117.8	0	-0.4	59.6	64.1	1932	13	0	0	0	70.3	63.2	0.0
2019 07/15 13:30	52.1	83.8	247.1	12.2	30.24	54.8	760.0	13.01	-117.4	0	-0.3	59.6	64.6	1932	13	0	0	0	71.0	63.6	0.0
2019 07/15 13:45	53.1	83.3	252.7	12.6	30.24	54.8	801.0	13.01	-117.1	0	-0.4	57.8	65.5	1932	13	0	0	0	71.4	63.8	0.0
2019 07/15 14:00	53.0	81.8	230.8	13.3	30.24	54.9	761.0	13.01	-116.6	0	-0.2	59.6	63.4	1932	13	0	0	0	71.7	63.9	0.0
2019 07/15 14:15	53.1	81.6	254.5	14.7	30.24	55.0	750.0	13.01	-116.1	0	-1.1	59.6	63.8	1932	13	0	0	0	71.7	63.9	0.0
2019 07/15 14:30	53.0	82.2	225.7	13.4	30.24	55.0	706.0	12.99	-115.6	0	-1.1	58.7	64.2	1932	13	0	0	0	71.7	63.9	0.0
2019 07/15 14:45	53.1	83.8	220.6	6.4	30.24	55.2	619.5	12.99	-115.0	0	-0.3	57.8	62.7	1932	13	0	0	0	71.7	63.9	0.0
2019 07/15 15:00	52.6	85.0	256.2	8.0	30.25	55.2	594.1	12.99	-114.5	0	-0.2	57.8	61.9	1932	13	0	0	0	71.5	63.8	0.0
2019 07/15 15:15	52.5	90.4	328.2	5.5	30.25	55.4	679.9	13.01	-113.9	0	-0.5	56.0	59.5	1932	13	0	0	0	71.4	63.7	0.0
2019 07/15 15:30	50.9	98.9	263.8	5.6	30.25	55.4	732.0	12.99	-113.4	0	-0.1	54.2	58.7	1932	13	0	0	0	71.0	63.3	0.0
2019 07/15 15:45	51.5	101.0	280.8	9.2	30.25	55.6	803.0	12.99	-112.8	0	-0.1	56.9	60.3	1932	13	0	0	0	70.4	63.1	0.0
2019 07/15 16:00	51.9	94.9	265.4	10.9	30.24	55.6	703.0	12.99	-112.3	0	0.0	57.8	60.9	1932	13	0	0	0	70.2	63.1	0.0
2019 07/15 16:15	53.1	91.1	290.0	11.5	30.24	55.9	722.0	13.01	-111.7	0	-0.4	56.9	60.7	1932	13	0	0	0	70.0	63.1	0.0
2019 07/15 16:30	51.9	94.9	285.7	14.2	30.24	55.9	660.9	13.01	-111.2	0	-0.1	56.0	60.1	1932	13	0	0	0	70.1	63.0	0.0
2019 07/15 16:45	50.4	100.8	260.6	9.5	30.24	56.0	673.1	12.99	-110.7	0	-0.2	54.2	58.2	1932	13	0	0	0	70.0	62.9	0.0
2019 07/15 17:00	50.5	101.4	219.4	6.7	30.25	56.1	664.3	13.01	-110.2	0	-0.1	54.2	58.6	1932	13	0	0	0	69.6	62.8	0.0
2019 07/15 17:15	50.5	101.7	311.1	7.4	30.24	56.2	596.8	12.99	-109.7	0	0.2	54.2	58.4	1932	13	0	0	0	69.2	62.7	0.0
2019 07/15 17:30	50.3	101.8	305.0	6.5	30.24	56.3	560.1	13.01	-109.3	0	0.2	54.2	58.5	1932	13	0	0	0	68.9	62.5	0.0
2019 07/15 17:45	51.0	101.9	47.6	5.2	30.24	56.3	662.3	12.99	-108.8	0	-0.3	55.1	58.5	1932	13	0	0	0	68.6	62.3	0.0
2019 07/15 18:00	51.5	102.1	227.9	9.2	30.24	56.4	763.0	12.99	-108.5	0	-0.9	56.9	60.3	1932	13	0	0	0	68.4	62.2	0.0
2019 07/15 18:15	51.9	102.1	185.1	5.4	30.23	56.5	781.0	12.99	-108.2	0	0.1	56.0	59.2	1932	13	0	0	0	68.5	62.1	0.0
2019 07/15 18:30	50.5	102.1	251.6	12.8	30.23	56.5	599.8	13.01	-107.8	0	-0.5	55.1	58.7	1932	13	0	0	0	68.5	62.1	0.0
2019 07/15 18:45	50.5	102.2	224.3	4.6	30.23	56.5	512.6	12.99	-107.4	0	0.2	54.2	58.5	1932	13	0	0	0	68.4	62.0	0.0
2019 07/15 19:00	50.4	102.2	246.9	8.7	30.23	56.6	523.5	12.99	-107.2	0	-0.2	54.2	58.9	1932	13	0	0	0	68.2	61.9	0.0
2019 07/15 19:15	50.4	102.2	218.1	9.3	30.23	56.7	629.0	13.01	-106.9	0	-0.1	54.2	58.8	1932	13	0	0	0	68.0	61.5	0.0
2019 07/15 19:30	50.1	102.3	182.0	7.1	30.23	56.7	556.1	13.01	-106.7	0	-0.2	54.2	58.4	1932	13	0	0	0	67.7	61.4	0.0
2019 07/15 19:45	49.8	102.2	297.0	8.1	30.22	56.7	348.4	13.01	-106.6	0	-0.3	54.2	58.0	1932	13	0	0	0	67.4	61.2	0.0
2019 07/15 20:00	49.9	102.2	208.7	7.1	30.23	56.7	258.5	13.01	-106.6	0	-0.2	53.3	58.0	1932	13	0	0	0	67.0	61.1	0.0
2019 07/15 20:15	49.8	102.3	238.4	10.9	30.23	56.7	176.8	13.01	-106.7	0	-0.2	53.3	57.3	1932	13	0	0	0	66.7	60.9	0.0
2019 07/15 20:30	49.8	102.2	303.1	9.3	30.22	56.7	284.6	12.98	-106.8	0	-0.2	53.3	57.3	1933	13	0	0	0	66.7	60.9	0.0
2019 07/15 20:45	49.4	102.2	283.8	8.9	30.22	56.5	55.6	12.99	-107.1	0	-0.1	52.4	56.6	1937	13	0	0	0	66.4	60.6	0.0
2019 07/15 21:00	49.2	102.1	273.8	9.8	30.22	56.5	14.9	13.01	-107.4	0	-0.1	52.4	57.1	1943	13	0	0	0	66.0	60.5	0.0
2019 07/15 21:15	49.3	102.1	352.3	9.5	30.22	56.5	1.0	13.01	-107.8	0	-0.1	52.4	56.7	1948	13	0	0	0	65.6	60.4	0.0
2019 07/15 21:30	49.0	102.1	297.3	9.5	30.22	56.5	-0.3	13.01	-108.3	0	-0.2	52.4	56.8	1949	13	0	0	0	65.5	60.3	0.0
2019 07/15 21:45	49.0	102.1	259.2	8.7	30.22	56.3	0.0	13.01	-108.8	0	-0.2	52.4	56.4	1950	13	0	0	0	65.3	60.2	0.0
2019 07/15 22:00	49.0	102.1	232.0	11.3	30.22	56.3	-0.3	13.01	-109.3	0	-0.2	52.4	56.5	1950	13	0	0	0	64.9	60.1	0.0
2019 07/15 22:15	48.8	102.1	265.6	6.9	30.22	56.1	0.0	13.02	-109.7	0	-0.2	52.4	56.5	1953	13	0	0	0	64.7	59.9	0.0
2019 07/15 22:30	48.7	102.1	260.7	9.4	30.22	56.1	0.0	13.01	-110.2	0	-0.3	52.4	56.1	1957	13	0	0	0	64.6	59.7	0.0
2019 07/15 22:45	48.5	102.1	218.4	9.1	30.21	55.9	0.0	13.00	-110.8	0	-0.3	52.4	56.2	1962	13	0	0	0	64.6	59.7	0.0
2019 07/15 23:00	48.5	102.1	264.4	5.1	30.21	55.9	0.0	13.01	-111.3	0	0.0	51.5	56.2	1966	13	0	0	0	64.1	59.6	0.0
2019 07/15 23:15	48.7	102.1	307.1	5.2	30.22	55.6	-0.3	13.01	-111.9	0	-0.0	51.5	56.1	1974	13	0	0	0	64.0	59.5	0.0
2019 07/15 23:30	48.5	102.1	268.0	6.7	30.21	55.6	0.0	12.99	-112.4	0	0.0	51.5	55.9	1983	13	0	0	0	63.9	59.4	0.0
2019 07/15 23:45	48.2	102.1	258.0	6.8	30.20	55.4	0.0	12.99	-113.0	0	-0.2	51.5	55.0	1988	13	0	0	0	63.7	59.4	0.0
2019 07/16 00:00	48.1	102.1	263.6	7.4	30.20	55.2	0.0	12.99	-113.6	0	-0.2	50.6	54.3	1992	13	0	0	0	63.5	59.3	0.0
2019 07/16 00:15	48.2	102.1	304.4	4.9	30.20	55.2	0.0	13.00	-114.1	0	-0.0	50.6	54.1	2008	13	0	0	0	63.3	59.1	0.0
2019 07/16 00:30	48.2	102.1	246.9	7.4	30.20	55.0	0.0	12.99	-114.7	0	0.0	50.6	53.5	2012	13	0	0	0	63.2	59.1	0.0
2019 07/16 00:45	48.2	102.1	246.3	8.9	30.19	55.0	-0.3	13.00	-115.2	0	-0.2	51.5	53.4	2013	13	0	0	0	63.0	59.0	0.0
2019 07/16 01:00	48.3	102.1	222.5	6.9	30.19	54.8	-0.3	13.01	-115.8	0	-0.2	51.5	53.9	2013	13	0	0	0	62.8	58.8	0.0
2019 07/16 01:15	48.3	102.0	230.7	6.1	30.18	54.6	0.0	13.01	-116.3	0	0.0	50.6	54.6	2013	13	0	0	0	62.7	58.8	0.0
2019 07/16 01:30	48.2	102.0	244.8	4.8	30.18	54.4	0.0	13.01	-116.8	0	-0.0	50.6	54.3	2016	13	0	0	0	62.5	58.7	0.0
2019 07/16 01:45	48.2	102.0	213.9	5.8	30.17	54.4	0.0	13.01	-117.3	0	-0.0	50.6	53.7	2021	13	0	0	0	62.3	58.6	0.0
2019 07/16 02:00	48.2	102.0	180.2	7.4	30.17	54.1	0.0	13.00	-117.8	0	-0.0	50.6	53.9	2021	13	0	0	0	62.2	58.5	0.0
2019 07/16 02:15	48.1	101.9	286.9	5.8	30.16	54.0	0.0	12.99	-118.3	0	-0.0	50.6	53.8	2021	13	0	0	0	62.2	58.5	0.0
2019 07/16 02:30	47.9	102.0	243.7	0.4	30.16	53.9	0.0	12.99	-118.8	0	-0.0	50.6	53.9	2021	13	0	0	0	62.2	58.5	0.0
2019 07/16 02:45	47.8	102.0	268.0	5.4	30.15	53.7	0.0	12.99	-119.1	0	-0.1	50.6	53.7	2023	13	0	0	0	61.7	58.3	0.0
2019 07/16 03:00	47.8	102.0	285.1	4.1	30.14	53.6	0.0	13.01	-119.6	0	-0.1	50.6	54.1	2023	13	0	0	0	61.7	58.3	0.0
2019 07/16 03:15	47.7	102.0	230.4	5.9	30.14	53.5	0.0	13.00	-120.1	0	-0.1	50.6	53.7	2023	13	0	0	0	61.4	58.2	0.0
2019 07/16 03:30	47.9	101.9	272.2	2.2	30.14	53.3	-0.3	12.99	-120.5	0	-0.0	50.6	53.8	2023	13	0	0	0	61.4	58.0	0.0
2019 07/16 03:45	47.8	102.0	248.3	7.3	30.13	53.3	-0.3	13.01	-120.9	0	-0.0	50.6	54.1	2023	13	0	0	0	61.4	58.0	0.0
2019 07/16 04:00	47.7	101.9	211.3	6.1	30.13	53.1	0.0	12.99	-121.2	0	-0.0	50.6	54.3	2023	13	0	0	0	61.1	57.9	0.0
2019 07/16 04:15	47.3	101.9	239.0	7.2	30.13	52.9	0.0	13.01	-121.6	0	-0.1	50.6	53.8	2023	13	0	0	0	60.9	57.9	0.0
2019 07/16 04:30	47.1	101.9	212.0	6.2	30.13	52.9	0.0	13.01	-122.0	0	-0.2	50.6	53.2	2023	13	0	0	0	60.9	57.8	0.0
2019 07/16 04:45	46.7	101.9	239.8	5.1	30.13	52.7	0.0	13.01	-122.3	0	-0.3	49.7	52.6	2025	13	0	0	0	60.7	57.8	0.0
2019 07/16 05:00	46.7	101.9	234.8	3.2	30.13	52.5	0.0	12.99	-122.7	0	-0.1	48.8	52.0	2025	13	0	0	0	60.6	57.7	0.0
2019 07/16 05:15	46.7	101.9	279.9	4.8	30.13	52.5	2.4	13.02	-123.1	0	-0.2	48.8	51.4	2025	13	0	0	0	60.4	57.6	0.0
2019 07/16 05:30	46.7	102.0	277.3	4.4	30.13	52.3	13.6	13.01	-123.3	0	-0.2	48.8	52.1	2025	13	0	0	0	60.3	57.5	0.0
2019 07/16 05:45	46.7	101.9	289.1	6.4	30.12	52.1	63.5	12.99	-123.7	0	-0.3	49.7	51.9	2025	13	0	0	0	60.2	57.4	0.0
2019 07/16 06:00	46.7	101.9	285.1	2.0	30.12	52.0	166.9	12.99	-123.9	0	-0.2	49.7	52.4	2025	13	0	0	0	60.1	57.4	0.0
2019 07/16 06:15	46.6	102.0	275.6	4.2	30.12	51.8	435.6	12.99	-124.3	0	-0.1	49.7	53.5	2025	13	0	0	0	60.0	57.3	0.0
2019 07/16 06:30	47.2	101.9	263.9	1.9	30.12	51.8	522.8	13.00	-124.5	0	-0.5	52.4	54.3	2025	13	0	0	0	60.0	57.3	0.0
2019 07/16 06:45	47.1	101.9	259.4	3.9	30.12	51.6	588.7	13.01	-124.8	0	-0.5	53.3	54.0	2025	13	0	0	0	59.7	57.3	0.0
2019 07/16 07:00	47.0	102.0	282.9	3.3	30.12	51.6	561.9	13.00	-125.0	0	-0.5	53.3	54.7	2025	13	0	0	0	59.5	57.3	0.0
2019 07/16 07:15	47.1	102.0	215.6	2.0	30.12	51.4	578.5	12.99	-125.3	0	-0.4	53.3	55.2	2025	13	0	0	0	59.7	57.3	0.0
2019 07/16 07:30	47.1	101.9	247.0	3.2	30.12	51.4	552.0	12.99	-125.3	0	-0.3	52.4	55.0	2025	13	0	0	0	59.6	57.3	0.0
2019 07/16 07:45	47.1	102.0	281.0	2.9	30.12	51.2	667.7	13.01	-125.4	0	-0.4	53.3	54.9	2025	13	0	0	0	59.7	57.3	0.0
2019 07/16 08:00	47.3	101.9	253.2	2.0	30.12	51.2	689.1	13.01	-125.5	0	-0.6	54.2	55.5	2025	13	0	0	0	59.7	57.3	0.0
2019 07/16 08:15	48.1	101.9	281.4	2.8	30.12	51.2	635.8	13.02	-125.5	0	-0.6	54.2	55.3	2025	13	0	0	0	59.9	57.3	0.0
2019 07/16 08:30	47.8	102.1	253.2	4.8	30.12	51.2	693.6	13.02	-125.5	0	-0.2	53.3	55.3	2025	13	0	0	0	59.9	57.4	0.0
2019 07/16 08:45	48.4	102.0	266.2	2.1	30.13	51.2	659.3	13.01	-125.4	0	-0.3	54.2	55.9	2025	13	0	0	0	60.0	57.5	0.0
2019 07/16 09:00	47.8	102.1	305.5	4.6	30.13	51.2	650.1	13.01	-125.4	0	-0.2	56.0	56.9	2025	13	0	0	0	60.3	57.6	0.0
2019 07/16 09:15	48.4	102.1	280.4	4.1	30.12	51.2	750.0	12.99	-125.3	0	-0.3	56.0	56.8	2025	13	0	0	0	60.7	57.8	0.0
2019 07/16 09:30	48.8	102.2	243.4	5.5	30.13	51.2	723.0	12.99	-125.0	0	-0.5	55.1	57.1	2025	13	0	0	0	61.2	58.0	0.0
2019 07/16 09:45	49.3	102.3	273.1	5.2	30.12	51.2	726.0	12.99	-124.9	0	-0.6	56.0	58.2	2025	13	0	0	0	61.8	58.4	0.0
2019 07/16 10:00	50.9	99.8	200.5	7.3	30.12	51.2	775.0	12.99	-124.6	0	-0.7	57.8	59.7	2025	13	0	0	0	62.5	58.6	0.0
2019 07/16 10:15	50.5	96.4	180.2	5.5	30.12	51.3	772.0	12.98	-124.3	0	-0.2	56.9	59.6	2025	13	0	0	0	63.3	59.2	0.0
2019 07/16 10:30	51.9	94.3	305.4	8.7	30.12	51.4	663.7	12.99	-124.0	0	-0.4	57.8	60.7	2025	13	0	0	0	63.7	59.4	0.0
2019 07/16 10:45	51.4	99.8	298.1	2.6	30.12	51.6	660.6	13.01	-123.5	0	-0.3	56.0	58.8	2025	13	0	0	0	64.4	59.7	0.0
2019 07/16 11:00	52.6	93.4	289.2	3.1	30.13	51.6	703.0	13.01	-123.1	0	0.3	58.7	60.9	2025	13	0	0	0	64.8	60.2	0.0
2019 07/16 11:15	52.2	86.8	255.7	6.1	30.13	51.8	730.0	13.01	-122.6	0	-0.4	57.8	60.0	2025	13	0	0	0	65.5	60.7	0.0
2019 07/16 11:30	52.0	87.3	305.3	7.8	30.13	51.9	801.0	13.00	-122.1	0	-0.4	58.7	60.7	2025	13	0	0	0	66.1	61.0	0.0
2019 07/16 11:45	54.0	78.1	285.7	6.5	30.13	52.0	766.0	13.00	-121.5	0	-0.3	62.3	63.2	2025	13	0	0	0	66.8	61.3	0.0
2019 07/16 12:00	54.4	73.6	270.8	4.7	30.13	52.2	772.0	13.01	-120.9	0	-1.1	63.2	63.3	2025	13	0	0	0	68.0	61.7	0.0
2019 07/16 12:15	55.4	77.7	246.2	3.6	30.13	52.5	750.0	13.01	-120.2	0	-0.6	61.4	62.9	2025	13	0	0	0	69.0	62.2	0.0
2019 07/16 12:30	55.8	74.5	310.3	10.6	30.13	52.7	750.0	13.01	-119.5	0	-0.5	62.3	62.9	2025	13	0	0	0	69.4	62.3	0.0
2019 07/16 12:45	54.8	77.1	296.9	8.6	30.14	52.8	778.0	13.00	-118.8	0	-0.8	60.5	62.7	2025	13	0	0	0	70.3	62.7	0.0
2019 07/16 13:00	56.2	72.9	234.4	8.9	30.14	52.9	808.0	12.98	-118.0	0	-1.2	64.1	64.8	2025	13	0	0	0	70.8	63.0	0.0
2019 07/16 13:15	55.3	78.0	291.8	9.4	30.15	53.1	727.0	12.98	-117.2	0	-0.9	61.4	63.4	2025	13	0	0	0	71.7	63.5	0.0
2019 07/16 13:30	54.9	78.8	325.7	6.8	30.15	53.4	732.0	13.01	-116.2	0	-0.4	60.5	63.1	2025	13	0	0	0	72.2	63.6	0.0
2019 07/16 13:45	55.4	78.6	311.0	4.1	30.15	53.5	725.0	12.99	-115.4	0	-0.0	60.5	62.9	2025	13	0	0	0	72.3	63.6	0.0
2019 07/16 14:00	55.1	80.9	324.6	10.5	30.15	53.8	789.0	13.01	-114.3	0	-0.9	61.4	63.8	2025	13	0	0	0	72.0	63.7	0.0
2019 07/16 14:15	55.4	76.4	297.1	8.8	30.15	54.0	745.0	12.99	-113.3	0	-0.6	64.1	67.3	2027	13	0	0	0	72.6	63.6	0.0
2019 07/16 14:30	55.6	73.1	310.8	10.1	30.15	54.3	725.0	13.01	-112.3	0	-0.6	63.2	66.3	2027	13	0	0	0	73.0	63.6	0.0
2019 07/16 14:45	56.2	76.1	214.3	5.2	30.15	54.6	731.0	12.99	-111.2	0	-0.8	62.3	64.3	2030	13	0	0	0	73.5	63.8	0.0
2019 07/16 15:00	57.0	72.3	305.8	5.8	30.15	54.8	734.0	13.02	-110.1	0	-0.7	61.4	64.0	2030	13	0	0	0	73.5	63.9	0.0
2019 07/16 15:15	58.7	70.2	269.2	7.9	30.15	55.0	745.0	13.01	-109.0	0	-0.3	63.2	65.2	2031	13	0	0	0	73.7	63.8	0.0
2019 07/16 15:30	57.6	71.2	322.2	12.2	30.15	55.2	822.0	12.99	-107.9	0	-0.7	62.3	65.0	2031	13	0	0	0	73.9	64.0	0.0
2019 07/16 15:45	57.7	71.4	291.5	9.3	30.16	55.4	718.0	13.01	-106.7	0	-0.7	62.3	66.3	2031	13	0	0	0	74.1	64.1	0.0
2019 07/16 16:00	56.4	74.8	317.0	7.8	30.16	55.6	733.0	13.01	-105.3	0	-0.7	61.4	65.0	2032	13	0	0	0	74.0	64.1	0.0
2019 07/16 16:15	56.5	74.0	320.0	10.6	30.16	55.9	773.0	12.99	-104.0	0	-0.8	61.4	65.2	2032	13	0	0	0	74.0	64.2	0.0
2019 07/16 16:30	55.8	77.6	278.4	12.2	30.16	56.1	710.0	13.01	-102.5	0	-0.8	60.5	64.5	2032	13	0	0	0	74.1	64.1	0.0
2019 07/16 16:45	56.2	77.8	295.7	12.4	30.16	56.3	717.0	13.00	-101.1	0	-0.2	61.4	64.9	2032	13	0	0	0	74.0	64.0	0.0
2019 07/16 17:00	57.3	73.1	301.1	8.9	30.16	56.5	717.0	13.01	-99.6	0	-0.5	62.3	65.4	2032	13	0	0	0	73.8	63.9	0.0
2019 07/16 17:15	57.8	72.8	253.3	6.7	30.16	56.7	791.0	13.01	-98.1	0	-2.2	62.3	67.0	2032	13	0	0	0	74.0	63.9	0.0
2019 07/16 17:30	57.5	74.9	204.3	8.7	30.16	56.9	812.0	13.02	-96.7	0	-1.0	61.4	66.7	2032	13	0	0	0	74.4	64.0	0.0
2019 07/16 17:45	55.9	76.7	292.2	4.9	30.16	57.1	704.0	13.01	-95.1	0	-0.6	60.5	64.5	2032	13	0	0	0	74.7	64.1	0.0
2019 07/16 18:00	55.5	78.3	346.5	9.2	30.17	57.4	684.0	13.02	-93.5	0	-0.4	59.6	63.7	2032	13	0	0	0	74.4	63.9	0.0
2019 07/16 18:15	55.3	80.1	201.9	9.1	30.18	57.6	719.0	12.99	-91.9	0	-0.7	59.6	63.6	2032	13	0	0	0	73.9	63.8	0.0
2019 07/16 18:30	54.9	79.0	245.7	13.4	30.18	57.8	790.0	12.99	-90.4	0	-0.6	59.6	63.4	2032	13	0	0	0	73.7	63.7	0.0
2019 07/16 18:45	54.4	78.8	296.6	8.3	30.18	58.0	669.7	13.01	-89.1	0	-0.4	58.7	62.8	2032	13	0	0	0	73.5	63.6	0.0
2019 07/16 19:00	53.6	80.2	115.8	9.3	30.18	58.1	658.2	13.03	-88.0	0	-0.3	57.8	62.8	2032	13	0	0	0	72.9	63.3	0.0
2019 07/16 19:15	53.4	80.9	11.9	11.1	30.17	58.2	724.0	12.99	-87.0	0	-0.1	57.8	62.3	2032	13	0	0	0	72.5	63.2	0.0
2019 07/16 19:30	53.4	81.8	211.8	6.2	30.18	58.4	689.7	12.99	-86.2	0	-0.6	59.6	62.2	2032	13	0	0	0	72.0	63.0	0.0
2019 07/16 19:45	53.0	82.5	236.9	5.1	30.18	58.4	726.0	13.01	-85.4	0	-0.2	57.8	61.0	2032	13	0	0	0	71.5	62.8	0.0
2019 07/16 20:00	52.7	83.5	332.8	9.9	30.18	58.6	896.0	12.99	-84.9	0	-0.5	56.9	60.3	2032	13	0	0	0	71.1	62.5	0.0
2019 07/16 20:15	52.0	85.4	266.5	7.4	30.18	58.6	834.0	13.01	-84.6	0	-0.1	55.1	59.7	2032	13	0	0	0	70.5	62.3	0.0
2019 07/16 20:30	51.1	89.0	232.6	6.9	30.19	58.7	803.0	13.00	-84.3	0	-0.2	54.2	59.3	2032	13	0	0	0	70.3	62.2	0.0
2019 07/16 20:45	50.1	91.7	272.7	4.7	30.19	58.8	353.2	13.01	-84.2	0	-0.2	53.3	57.8	2032	13	0	0	0	69.8	62.0	0.0
2019 07/16 21:00	49.5	95.3	304.6	10.5	30.19	58.9	231.0	12.99	-84.2	0	-0.2	52.4	56.6	2032	13	0	0	0	69.2	61.7	0.0
2019 07/16 21:15	48.9	98.2	318.4	8.6	30.19	58.9	13.6	13.01	-84.5	0	-0.2	51.5	55.5	2032	13	0	0	0	68.7	61.4	0.0
2019 07/16 21:30	48.7	99.6	287.2	9.5	30.19	58.9	1.4	13.00	-84.9	0	-0.4	51.5	54.9	2032	13	0	0	0	68.2	61.2	0.0
2019 07/16 21:45	48.5	101.1	279.2	8.9	30.19	58.8	0.0	12.99	-85.6	0	-0.2	51.5	55.2	2035	13	0	0	0	67.6	61.1	0.0
2019 07/16 22:00	48.3	101.8	290.9	12.0	30.18	58.7	0.0	12.99	-86.3	0	0.0	50.6	54.9	2037	13	0	0	0	66.9	60.9	0.0
2019 07/16 22:15	48.3	102.1	235.6	9.7	30.18	58.6	0.0	13.01	-87.3	0	-0.1	50.6	54.4	2045	13	0	0	0	66.3	60.6	0.0
2019 07/16 22:30	48.3	102.1	283.5	11.3	30.17	58.6	-0.3	12.99	-88.4	0	-0.0	49.7	54.1	2056	13	0	0	0	66.0	60.4	0.0
2019 07/16 22:45	48.3	102.3	282.2	9.8	30.17	58.4	0.0	12.99	-89.3	0	-0.2	50.6	53.3	2082	13	0	0	0	65.6	60.2	0.0
2019 07/16 23:00	48.1	102.3	275.1	10.1	30.17	58.4	0.0	13.01	-90.6	0	0.0	49.7	53.3	2087	13	0	0	0	65.4	60.1	0.0
2019 07/16 23:15	47.9	102.3	272.6	10.5	30.16	58.2	0.0	13.01	-91.8	0	-0.2	50.6	53.7	2095	13	0	0	0	65.0	59.9	0.0
2019 07/16 23:30	47.7	102.3	276.3	11.3	30.16	58.0	0.0	13.01	-93.0	0	-0.1	50.6	54.8	2106	13	0	0	0	64.7	59.7	0.0
2019 07/16 23:45	47.6	102.3	285.0	12.0	30.16	58.0	0.0	13.02	-94.2	0	-0.1	50.6	54.0	2124	13	0	0	0	64.5	59.5	0.0
2019 07/17 00:00	47.3	102.3	282.6	12.7	30.15	57.8	0.0	13.01	-95.5	0	0.0	49.7	53.8	2140	13	0	0	0	64.1	59.4	0.0
2019 07/17 00:15	47.2	102.3	256.7	12.1	30.15	57.6	0.0	13.01	-96.7	0	0.0	49.7	54.0	2190	13	0	0	0	63.9	59.3	0.0
2019 07/17 00:30	47.3	102.2	221.9	14.0	30.15	57.4	-0.3	13.01	-97.9	0	0.0	49.7	53.7	2199	13	0	0	0	63.8	59.3	0.0
2019 07/17 00:45	47.2	102.2	314.5	13.5	30.15	57.4	0.0	13.00	-99.1	0	0.0	49.7	54.4	2207	13	0	0	0	63.5	59.1	0.0
2019 07/17 01:00	47.2	102.2	231.9	12.1	30.14	57.1	-0.3	12.99	-100.3	0	-0.0	49.7	54.0	2212	13	0	0	0	63.3	59.0	0.0
2019 07/17 01:15	47.3	102.1	232.7	16.8	30.14	56.9	0.0	12.99	-101.6	0	-0.1	49.7	54.0	2212	13	0	0	0	63.3	59.0	0.0
2019 07/17 01:30	47.3	102.2	279.4	13.8	30.14	56.7	-0.3	13.01	-102.7	0	-0.0	49.7	54.4	2212	13	0	0	0	63.3	59.0	0.0
2019 07/17 01:45	47.0	102.2	264.6	16.8	30.13	56.5	-0.3	13.02	-103.8	0	-0.1	49.7	54.0	2214	13	0	0	0	62.8	58.6	0.0
2019 07/17 02:00	46.8	102.1	288.9	15.1	30.13	56.4	0.0	13.01	-104.9	0	-0.0	49.7	53.7	2214	13	0	0	0	62.7	58.5	0.0
2019 07/17 02:15	46.7	102.2	254.1	18.5	30.13	56.3	0.0	12.99	-106.0	0	-0.1	49.7	53.1	2214	13	0	0	0	62.4	58.4	0.0
2019 07/17 02:30	47.0	102.1	282.4	17.9	30.12	56.1	0.0	12.99	-107.1	0	-0.1	49.7	53.1	2214	13	0	0	0	62.3	58.3	0.0
2019 07/17 02:45	46.6	102.1	256.1	19.1	30.11	55.9	0.0	12.99	-108.0	0	-0.1	49.7	53.2	2224	13	0	0	0	62.1	58.2	0.0
2019 07/17 03:00	46.5	102.1	227.6	19.6	30.11	55.6	0.0	12.98	-109.1	0	-0.1	49.7	53.0	2227	13	0	0	0	61.9	58.0	0.0
2019 07/17 03:15	46.5	102.1	279.3	17.9	30.11	55.4	-0.3	13.00	-110.0	0	-0.2	49.7	52.6	2228	13	0	0	0	61.8	57.9	0.0
2019 07/17 03:30	46.4	102.1	211.8	16.9	30.10	55.2	0.0	12.99	-111.0	0	-0.2	49.7	52.4	2228	13	0	0	0	61.7	57.9	0.0
2019 07/17 03:45	46.0	102.1	235.3	17.5	30.10	55.1	0.0	13.01	-111.9	0	-0.3	49.7	52.5	2241	13	0	0	0	61.4	57.8	0.0
2019 07/17 04:00	46.1	102.1	235.9	16.6	30.09	55.0	0.0	12.98	-112.8	0	-0.0	48.8	52.1	2255	13	0	0	0	61.2	57.7	0.0
2019 07/17 04:15	45.9	102.1	245.1	19.8	30.09	54.8	0.0	13.00	-113.6	0	-0.2	48.8	52.0	2273	13	0	0	0	61.1	57.6	0.0
2019 07/17 04:30	45.9	102.1	248.8	20.1	30.09	54.6	0.0	13.00	-114.5	0	-0.2	48.8	52.1	2291	13	0	0	0	61.0	57.5	0.0
2019 07/17 04:45	45.4	102.1	246.6	19.3	30.09	54.4	0.0	13.01	-115.2	0	-0.2	48.8	52.1	2302	13	0	0	0	60.9	57.4	0.0
2019 07/17 05:00	45.4	102.0	281.9	8.1	30.09	54.1	0.0	12.99	-116.0	0	-0.2	48.8	51.9	2313	13	0	0	0	60.6	57.3	0.0
2019 07/17 05:15	45.3	102.1	267.3	18.4	30.09	53.9	2.0	12.99	-116.7	0	-0.2	48.8	52.0	2316	13	0	0	0	60.4	57.2	0.0
2019 07/17 05:30	45.1	102.1	241.0	16.7	30.08	53.7	37.7	12.99	-117.4	0	0.0	47.9	52.1	2330	13	0	0	0	60.3	57.0	0.0
2019 07/17 05:45	45.4	102.0	240.8	15.7	30.07	53.5	71.9	13.01	-118.0	0	-0.1	47.9	51.3	2331	13	0	0	0	60.2	56.9	0.0
2019 07/17 06:00	44.8	102.0	220.2	19.6	30.08	53.4	181.8	12.98	-118.8	0	-0.1	47.9	51.2	2331	13	0	0	0	60.1	56.8	0.0
2019 07/17 06:15	44.8	102.0	177.4	17.3	30.07	53.3	355.2	12.98	-119.4	0	-0.1	47.9	51.6	2331	13	0	0	0	59.9	56.8	0.0
2019 07/17 06:30	44.5	102.0	233.5	18.8	30.08	53.1	450.6	12.97	-120.0	0	0.0	47.9	51.6	2331	13	0	0	0	59.7	56.7	0.0
2019 07/17 06:45	44.5	102.1	243.5	18.6	30.09	52.9	626.3	13.01	-120.6	0	-0.2	48.8	51.7	2331	13	0	0	0	59.7	56.6	0.0
2019 07/17 07:00	44.6	102.0	223.8	16.9	30.09	52.7	611.7	12.98	-121.2	0	-0.3	48.8	52.4	2331	13	0	0	0	59.5	56.5	0.0
2019 07/17 07:15	44.4	102.0	243.5	16.0	30.09	52.5	639.9	12.97	-121.7	0	-0.4	49.7	52.8	2331	13	0	0	0	59.5	56.4	0.0
2019 07/17 07:30	44.2	102.0	230.9	19.6	30.07	52.3	688.7	12.99	-122.2	0	-0.4	49.7	52.5	2331	13	0	0	0	59.4	56.4	0.0
2019 07/17 07:45	44.2	102.1	232.7	17.8	30.07	52.3	700.0	12.99	-122.6	0	-0.3	49.7	52.6	2331	13	0	0	0	59.4	56.2	0.0
2019 07/17 08:00	44.4	102.0	215.0	16.0	30.07	52.0	654.8	13.02	-122.9	0	-0.4	50.6	53.5	2331	13	0	0	0	59.4	56.1	0.0
2019 07/17 08:15	44.5	102.0	274.3	15.1	30.08	51.9	669.1	12.99	-123.2	0	-0.9	50.6	53.3	2331	13	0	0	0	59.4	56.1	0.0
2019 07/17 08:30	44.3	102.1	243.6	19.8	30.08	51.8	663.3	13.01	-123.4	0	-0.3	51.5	53.7	2331	13	0	0	0	59.3	56.0	0.0
2019 07/17 08:45	44.3	102.0	241.1	16.0	30.09	51.7	653.5	12.99	-123.7	0	-0.5	51.5	54.3	2331	13	0	0	0	59.3	56.0	0.0
2019 07/17 09:00	44.2	102.1	236.7	17.4	30.09	51.6	695.6	13.00	-123.8	0	-0.2	52.4	55.0	2331	13	0	0	0	59.3	56.0	0.0
2019 07/17 09:15	44.8	102.1	237.9	18.0	30.08	51.6	694.2	13.01	-123.8	0	-0.2	52.4	55.9	2331	13	0	0	0	59.4	56.0	0.0
2019 07/17 09:30	45.8	101.7	241.6	17.8	30.07	51.5	741.0	12.99	-123.9	0	-1.2	53.3	56.4	2331	13	0	0	0	59.6	56.2	0.0
2019 07/17 09:45	46.4	96.0	253.2	18.6	30.08	51.5	732.0	13.01	-123.9	0	-0.6	53.3	57.0	2331	13	0	0	0	60.0	56.5	0.0
2019 07/17 10:00	46.9	94.3	255.2	16.8	30.08	51.4	755.0	12.99	-123.8	0	-0.5	53.3	57.1	2331	13	0	0	0	60.4	56.7	0.0
2019 07/17 10:15	46.6	93.8	242.9	17.8	30.08	51.4	732.0	12.98	-123.8	0	-0.4	53.3	58.0	2331	13	0	0	0	60.9	57.0	0.0
2019 07/17 10:30	48.3	89.3	253.1	16.8	30.09	51.5	744.0	12.98	-123.5	0	-0.5	54.2	58.7	2331	13	0	0	0	61.2	57.2	0.0
2019 07/17 10:45	48.6	88.8	230.8	16.6	30.09	51.5	786.0	12.98	-123.4	0	-0.9	56.0	58.9	2331	13	0	0	0	61.8	57.5	0.0
2019 07/17 11:00	48.3	87.2	243.4	18.4	30.09	51.6	779.0	12.99	-123.2	0	-0.9	56.0	60.2	2331	13	0	0	0	62.3	57.7	0.0
2019 07/17 11:15	49.0	83.7	242.7	20.8	30.08	51.6	756.0	12.97	-122.9	0	-0.3	56.0	61.0	2331	13	0	0	0	63.1	58.3	0.0
2019 07/17 11:30	49.4	84.8	245.7	20.9	30.09	51.6	757.0	12.97	-122.6	0	-0.5	56.9	61.2	2331	13	0	0	0	64.2	59.1	0.0
2019 07/17 11:45	50.3	84.5	213.8	21.2	30.09	51.8	779.0	12.97	-122.2	0	-0.5	56.9	61.9	2331	13	0	0	0	65.5	59.7	0.0
2019 07/17 12:00	50.6	83.1	244.4	19.6	30.10	51.8	777.0	12.99	-121.8	0	-0.4	57.8	64.6	2331	13	0	0	0	66.6	60.6	0.0
2019 07/17 12:15	50.6	81.7	234.4	22.1	30.11	52.0	811.0	12.98	-121.5	0	0.4	57.8	62.9	2331	13	0	0	0	67.7	61.3	0.0
2019 07/17 12:30	51.1	81.5	269.1	17.2	30.11	52.0	763.0	12.99	-121.0	0	-0.5	57.8	62.0	2331	13	0	0	0	68.3	61.5	0.0
2019 07/17 12:45	52.1	81.7	240.4	12.1	30.12	52.3	755.0	13.01	-120.4	0	-0.2	59.6	62.9	2331	13	0	0	0	69.1	62.2	0.0
2019 07/17 13:00	51.9	81.3	279.2	16.5	30.12	52.3	753.0	12.99	-119.9	0	-0.1	57.8	62.5	2331	13	0	0	0	70.0	62.8	0.0
2019 07/17 13:15	52.8	81.2	271.5	13.3	30.12	52.5	809.0	12.99	-119.4	0	-0.9	58.7	61.8	2331	13	0	0	0	70.6	62.9	0.0
2019 07/17 13:30	54.0	78.1	244.8	14.0	30.12	52.7	746.0	13.01	-118.8	0	-0.5	58.7	62.7	2331	13	0	0	0	70.6	63.2	0.0
2019 07/17 13:45	53.8	76.7	254.3	16.2	30.13	52.7	812.0	13.00	-118.2	0	-0.6	60.5	63.8	2331	13	0	0	0	70.9	63.3	0.0
2019 07/17 14:00	54.0	76.3	246.7	12.9	30.13	52.9	733.0	13.01	-117.6	0	-0.5	61.4	64.0	2331	13	0	0	0	71.3	63.5	0.0
2019 07/17 14:15	54.3	78.0	268.4	7.9	30.13	53.1	762.0	12.99	-116.8	0	-0.8	59.6	63.3	2331	13	0	0	0	71.3	63.6	0.0
2019 07/17 14:30	54.7	78.8	168.6	14.5	30.12	53.2	776.0	13.01	-116.2	0	-0.4	60.5	64.2	2331	13	0	0	0	71.1	63.5	0.0
2019 07/17 14:45	54.9	77.4	176.7	17.9	30.12	53.4	824.0	12.99	-115.6	0	-0.2	62.3	65.6	2331	13	0	0	0	71.1	63.3	0.0
2019 07/17 15:00	55.4	76.3	181.9	14.0	30.12	53.5	786.0	12.99	-114.7	0	-0.9	61.4	65.5	2331	13	0	0	0	71.4	63.5	0.0
2019 07/17 15:15	56.4	75.5	184.4	12.8	30.13	53.7	753.0	12.99	-114.0	0	-0.3	62.3	66.4	2331	13	0	0	0	71.5	63.5	0.0
2019 07/17 15:30	57.2	72.8	207.6	11.9	30.12	53.9	782.0	13.01	-113.2	0	-0.7	62.3	67.3	2331	13	0	0	0	71.7	63.5	0.0
2019 07/17 15:45	56.1	74.6	204.5	16.8	30.13	54.1	785.0	12.99	-112.2	0	-0.4	61.4	66.0	2331	13	0	0	0	71.9	63.6	0.0
2019 07/17 16:00	56.5	73.8	233.7	16.5	30.13	54.1	722.0	13.01	-111.1	0	-0.5	61.4	65.6	2331	13	0	0	0	72.0	63.7	0.0
2019 07/17 16:15	56.0	74.4	250.2	18.4	30.13	54.4	750.0	12.99	-110.0	0	-0.3	61.4	66.4	2331	13	0	0	0	72.0	63.6	0.0
2019 07/17 16:30	57.5	74.7	251.8	6.6	30.13	54.6	753.0	12.98	-108.9	0	-0.2	63.2	67.0	2331	13	0	0	0	72.1	63.6	0.0
2019 07/17 16:45	55.9	77.7	240.1	20.4	30.13	54.8	780.0	12.99	-107.7	0	-0.6	62.3	67.6	2331	13	0	0	0	72.3	63.7	0.0
2019 07/17 17:00	55.4	80.0	269.8	15.1	30.13	55.0	747.0	12.99	-106.4	0	-0.8	61.4	67.2	2331	13	0	0	0	72.6	63.8	0.0
2019 07/17 17:15	55.1	82.5	275.3	14.7	30.13	55.2	718.0	12.98	-105.2	0	-0.8	59.6	65.6	2331	13	0	0	0	72.6	63.8	0.0
2019 07/17 17:30	55.4	83.5	56.7	8.5	30.13	55.4	654.5	12.99	-104.0	0	-0.7	59.6	65.2	2332	13	0	0	0	72.6	63.7	0.0
2019 07/17 17:45	54.3	86.9	286.9	12.4	30.14	55.6	563.9	12.98	-102.9	0	-0.5	59.6	64.7	2332	13	0	0	0	72.2	63.6	0.0
2019 07/17 18:00	53.6	88.8	287.8	16.1	30.14	55.9	625.3	12.99	-101.7	0	-0.3	58.7	63.6	2332	13	0	0	0	71.9	63.5	0.0
2019 07/17 18:15	53.4	89.8	239.8	11.3	30.14	56.0	591.7	12.99	-100.6	0	-0.7	58.7	62.8	2332	13	0	0	0	71.7	63.3	0.0
2019 07/17 18:30	53.0	91.3	175.2	8.3	30.14	56.1	578.1	13.01	-99.6	0	-0.5	57.8	62.8	2332	13	0	0	0	71.0	63.0	0.0
2019 07/17 18:45	52.6	92.2	256.9	13.4	30.14	56.3	634.4	13.00	-98.7	0	-0.2	57.8	62.4	2332	13	0	0	0	70.6	62.9	0.0
2019 07/17 19:00	52.2	93.1	313.7	10.7	30.14	56.5	478.7	12.99	-98.1	0	-0.2	56.9	62.0	2332	13	0	0	0	70.2	62.7	0.0
2019 07/17 19:15	51.6	95.9	205.5	11.1	30.14	56.5	413.2	12.99	-97.5	0	-0.4	56.0	61.0	2332	13	0	0	0	69.8	62.4	0.0
2019 07/17 19:30	50.9	98.7	292.5	9.5	30.15	56.5	376.9	12.99	-97.2	0	-0.2	55.1	59.7	2332	13	0	0	0	69.5	62.3	0.0
2019 07/17 19:45	50.8	99.8	141.3	7.7	30.14	56.7	288.7	13.01	-96.8	0	-0.2	55.1	59.6	2332	13	0	0	0	69.1	62.1	0.0
2019 07/17 20:00	50.4	100.9	191.6	13.5	30.14	56.7	227.3	12.99	-96.7	0	-0.2	55.1	59.7	2332	13	0	0	0	68.9	62.0	0.0
2019 07/17 20:15	50.5	100.7	93.3	10.8	30.14	56.7	708.0	13.01	-96.7	0	-0.2	55.1	59.2	2332	13	0	0	0	68.2	61.5	0.0
2019 07/17 20:30	50.5	98.6	247.9	20.4	30.13	56.7	211.0	13.01	-96.8	0	-0.3	55.1	58.5	2333	13	0	0	0	68.0	61.5	0.0
2019 07/17 20:45	50.3	100.9	237.2	15.8	30.14	56.7	31.2	13.01	-97.0	0	-0.0	54.2	59.4	2333	13	0	0	0	67.6	61.3	0.0
2019 07/17 21:00	50.0	101.8	209.7	17.5	30.13	56.7	4.4	13.01	-97.4	0	-0.2	54.2	58.7	2334	13	0	0	0	67.3	61.1	0.0
2019 07/17 21:15	49.9	102.1	187.3	12.8	30.13	56.7	0.7	13.01	-97.9	0	-0.2	54.2	57.6	2334	13	0	0	0	66.9	61.0	0.0
2019 07/17 21:30	49.9	102.3	174.4	12.1	30.13	56.7	0.0	13.00	-98.5	0	-0.2	54.2	58.4	2335	13	0	0	0	66.8	60.9	0.0
2019 07/17 21:45	49.6	102.4	288.7	16.0	30.13	56.5	0.0	12.99	-99.0	0	0.0	53.3	57.9	2348	13	0	0	0	66.5	60.7	0.0
2019 07/17 22:00	49.6	102.4	232.7	20.0	30.13	56.5	-0.3	12.99	-99.7	0	0.0	53.3	57.6	2367	13	0	0	0	66.1	60.5	0.0
2019 07/17 22:15	49.6	102.3	259.3	13.1	30.13	56.5	-0.3	12.99	-100.3	0	-0.2	53.3	57.9	2408	13	0	0	0	65.9	60.4	0.0
2019 07/17 22:30	49.6	102.4	240.1	14.1	30.12	56.3	0.0	13.00	-101.1	0	-0.2	53.3	57.3	2436	13	0	0	0	65.6	60.3	0.0
2019 07/17 22:45	49.6	102.3	189.4	14.1	30.12	56.2	0.0	12.98	-101.9	0	-0.2	53.3	57.4	2457	13	0	0	0	65.4	60.2	0.0
2019 07/17 23:00	49.5	102.3	263.6	14.4	30.12	56.1	0.0	13.01	-102.7	0	-0.3	53.3	57.0	2476	13	0	0	0	65.0	60.1	0.0
2019 07/17 23:15	49.4	102.3	253.5	17.3	30.12	56.0	0.0	12.99	-103.4	0	-0.2	52.4	57.0	2515	13	0	0	0	64.8	60.0	0.0
2019 07/17 23:30	49.3	102.3	216.7	15.5	30.11	55.9	0.0	13.01	-104.1	0	-0.2	52.4	56.0	2533	13	0	0	0	64.6	59.9	0.0
2019 07/17 23:45	49.3	102.3	263.4	18.6	30.11	55.8	0.0	12.99	-104.9	0	-0.4	52.4	56.0	2543	13	0	0	0	64.5	59.7	0.0
2019 07/18 00:00	49.3	102.3	263.1	12.7	30.11	55.6	0.0	13.02	-105.7	0	-0.3	52.4	55.9	2564	13	0	0	0	64.4	59.6	0.0
2019 07/18 00:15	49.2	102.3	246.0	6.4	30.11	55.4	0.0	13.00	-106.4	0	-0.0	51.5	55.3	2777	13	0	0	0	64.1	59.6	0.0
2019 07/18 00:30	49.2	102.3	228.2	8.9	30.11	55.4	-0.3	12.99	-107.2	0	0.1	51.5	55.2	2795	13	0	0	0	63.9	59.5	0.0
2019 07/18 00:45	49.2	102.3	222.7	18.0	30.10	55.2	0.0	12.98	-107.9	0	0.2	51.5	55.5	2819	14	0	0	0	63.7	59.4	0.0
2019 07/18 01:00	49.0	102.3	140.1	19.4	30.09	55.1	0.0	13.01	-108.6	0	0.1	51.5	55.6	2826	14	0	0	0	63.6	59.3	0.0
2019 07/18 01:15	49.0	102.3	225.6	19.6	30.09	55.0	-0.3	12.99	-109.4	0	0.0	51.5	55.1	2828	14	0	0	0	63.3	59.2	0.0
2019 07/18 01:30	49.0	102.2	282.2	21.1	30.09	54.8	0.0	12.98	-110.1	0	0.2	51.5	55.1	2831	15	0	0	0	63.2	59.1	0.0
2019 07/18 01:45	49.0	102.2	223.1	17.3	30.09	54.6	0.0	13.00	-110.8	0	0.0	51.5	54.6	2831	15	0	0	0	63.2	59.1	0.0
2019 07/18 02:00	48.9	102.2	195.1	18.7	30.08	54.5	0.0	13.01	-111.5	0	0.2	51.5	54.6	2852	16	0	0	0	62.9	58.8	0.0
2019 07/18 02:15	48.9	102.3	250.5	16.2	30.08	54.4	-0.3	13.01	-112.2	0	-0.0	51.5	54.4	2856	16	0	0	0	62.8	58.8	0.0
2019 07/18 02:30	48.9	102.2	247.5	13.1	30.09	54.1	0.0	13.02	-112.8	0	0.0	51.5	54.4	2856	16	0	0	0	62.8	58.8	0.0
2019 07/18 02:45	48.9	102.2	208.0	10.9	30.09	54.1	0.0	13.00	-113.5	0	-0.0	51.5	54.6	2884	18	0	0	0	62.4	58.6	0.0
2019 07/18 03:00	48.8	102.2	319.2	11.9	30.08	53.9	0.0	13.01	-114.1	0	0.1	51.5	55.1	2913	19	0	0	0	62.3	58.5	0.0
2019 07/18 03:15	48.7	102.1	264.6	11.9	30.08	53.7	-0.3	12.99	-114.7	0	0.1	51.5	54.3	2922	21	0	0	0	62.2	58.5	0.0
2019 07/18 03:30	48.7	102.2	268.3	18.5	30.07	53.7	0.0	12.98	-115.2	0	-0.2	51.5	54.4	2942	21	0	0	0	62.2	58.4	0.0
2019 07/18 03:45	48.5	102.1	315.6	9.4	30.08	53.5	0.0	12.97	-115.7	0	-0.0	51.5	54.2	2954	21	0	0	0	62.0	58.4	0.0
2019 07/18 04:00	48.5	102.1	247.9	11.3	30.07	53.3	-0.3	13.01	-116.3	0	-0.3	51.5	54.2	2957	22	0	0	0	61.9	58.4	0.0
2019 07/18 04:15	48.4	102.2	289.2	10.4	30.07	53.3	0.0	13.00	-116.8	0	-0.3	51.5	54.2	2960	22	0	0	0	61.8	58.3	0.0
2019 07/18 04:30	48.4	102.1	163.9	15.3	30.07	53.1	0.0	13.01	-117.3	0	-0.3	51.5	53.9	2963	22	0	0	0	61.7	58.2	0.0
2019 07/18 04:45	48.3	102.1	307.2	10.4	30.07	52.9	0.0	12.99	-117.8	0	-0.3	51.5	53.9	2963	22	0	0	0	61.7	58.2	0.0
2019 07/18 05:00	48.3	102.1	315.0	10.1	30.07	52.9	0.0	13.01	-118.2	0	0.0	50.6	54.0	2974	23	0	0	0	61.4	58.0	0.0
2019 07/18 05:15	48.3	102.1	273.4	10.6	30.07	52.7	1.7	13.00	-118.7	0	0.0	50.6	53.4	2975	23	0	0	0	61.3	57.9	0.0
2019 07/18 05:30	48.1	102.2	205.5	16.2	30.06	52.6	18.7	12.99	-119.0	0	0.0	50.6	53.3	2975	23	0	0	0	61.3	57.9	0.0
2019 07/18 05:45	48.1	102.1	267.0	15.1	30.06	52.4	66.2	12.99	-119.4	0	-0.0	50.6	53.3	2980	23	0	0	0	61.1	57.8	0.0
2019 07/18 06:00	48.0	102.1	227.0	12.4	30.06	52.3	181.2	13.00	-119.9	0	-0.1	50.6	53.4	2980	23	0	0	0	60.9	57.8	0.0
2019 07/18 06:15	47.8	102.1	182.6	8.0	30.07	52.3	197.5	13.01	-120.2	0	-0.1	50.6	53.3	2980	23	0	0	0	60.9	57.7	0.0
2019 07/18 06:30	47.6	102.1	301.4	11.3	30.07	52.0	292.1	13.01	-120.6	0	-0.1	50.6	53.3	2980	23	0	0	0	60.6	57.7	0.0
2019 07/18 06:45	47.6	102.1	269.0	14.4	30.07	52.0	383.4	12.99	-121.0	0	-0.2	50.6	53.3	2980	24	0	0	0	60.6	57.6	0.0
2019 07/18 07:00	47.6	102.1	243.5	8.0	30.07	51.8	399.4	13.01	-121.3	0	-0.0	50.6	53.3	2980	24	0	0	0	60.5	57.6	0.0
2019 07/18 07:15	47.7	102.1	240.8	11.2	30.08	51.7	585.3	12.99	-121.6	0	-0.1	50.6	53.5	2980	24	0	0	0	60.4	57.6	0.0
2019 07/18 07:30	47.8	102.1	288.3	9.8	30.08	51.6	461.1	12.98	-122.0	0	-0.1	50.6	53.7	2980	24	0	0	0	60.3	57.6	0.0
2019 07/18 07:45	47.6	102.1	286.3	14.9	30.08	51.4	630.1	13.00	-122.2	0	-0.0	50.6	53.9	2980	25	0	0	0	60.3	57.5	0.0
2019 07/18 08:00	47.7	102.1	290.5	4.9	30.08	51.4	551.7	13.02	-122.5	0	0.0	50.6	54.3	2980	25	0	0	0	60.2	57.4	0.0
2019 07/18 08:15	47.6	102.1	281.2	9.8	30.08	51.3	591.8	12.99	-122.7	0	-0.2	50.6	53.9	2980	25	0	0	0	60.2	57.4	0.0
2019 07/18 08:30	47.5	102.1	154.5	6.8	30.08	51.2	595.8	13.01	-122.9	0	-0.2	50.6	54.0	2980	25	0	0	0	60.2	57.4	0.0
2019 07/18 08:45	47.1	102.1	356.3	8.2	30.09	51.1	671.2	13.03	-123.1	0	-0.0	50.6	54.2	2980	26	0	0	0	59.9	57.3	0.0
2019 07/18 09:00	47.0	102.1	348.7	8.8	30.09	51.0	669.8	12.99	-123.3	0	0.2	49.7	54.3	2980	26	0	0	0	59.9	57.3	0.0
2019 07/18 09:15	47.1	102.1	251.6	5.6	30.09	51.0	711.0	13.01	-123.4	0	-0.2	50.6	53.7	2980	26	0	0	0	60.0	57.3	0.0
2019 07/18 09:30	46.6	102.1	285.7	9.5	30.09	50.9	713.0	13.00	-123.4	0	0.0	49.7	54.4	2980	26	0	0	0	60.0	57.4	0.0
2019 07/18 09:45	47.0	102.1	216.9	6.5	30.09	50.8	746.0	12.99	-123.6	0	-0.0	50.6	54.1	2980	26	0	0	0	59.9	57.4	0.0
2019 07/18 10:00	47.1	102.1	273.9	4.0	30.09	50.8	687.5	13.00	-123.6	0	0.0	50.6	54.0	2980	26	0	0	0	59.9	57.4	0.0
2019 07/18 10:15	47.8	102.1	258.6	5.9	30.09	50.8	751.0	13.02	-123.6	0	-0.1	50.6	54.8	2980	26	0	0	0	60.1	57.5	0.0
2019 07/18 10:30	47.6	102.2	282.3	7.1	30.09	50.8	749.0	12.99	-123.6	0	-0.1	50.6	54.6	2980	28	0	0	0	60.2	57.6	0.0
2019 07/18 10:45	47.8	102.1	292.9	7.5	30.09	50.8	717.0	13.01	-123.6	0	-0.0	51.5	55.3	2980	29	0	0	0	60.3	57.6	0.0
2019 07/18 11:00	48.0	102.1	250.1	12.1	30.10	50.8	763.0	13.00	-123.4	0	0.0	53.3	56.2	2980	29	0	0	0	60.6	57.8	0.0
2019 07/18 11:15	48.1	102.2	295.7	11.2	30.10	50.8	805.0	12.99	-123.3	0	-0.6	53.3	56.7	2980	29	0	0	0	61.2	58.3	0.0
2019 07/18 11:30	48.4	102.1	208.3	8.3	30.10	50.8	749.0	12.97	-123.2	0	-0.2	53.3	57.8	2980	29	0	0	0	61.7	58.5	0.0
2019 07/18 11:45	48.3	102.3	296.4	6.9	30.10	50.8	764.0	12.98	-122.9	0	-0.1	54.2	57.4	2980	29	0	0	0	62.4	59.0	0.0
2019 07/18 12:00	49.2	102.2	228.9	7.7	30.11	50.9	713.0	13.01	-122.7	0	-0.2	54.2	57.6	2980	29	0	0	0	63.1	59.3	0.0
2019 07/18 12:15	48.3	102.3	166.5	9.3	30.11	51.0	737.0	12.98	-122.3	0	-0.2	53.3	57.3	2980	29	0	0	0	63.7	59.6	0.0
2019 07/18 12:30	49.2	102.2	253.7	11.7	30.11	51.0	814.0	13.00	-122.0	0	-0.3	55.1	58.9	2980	29	0	0	0	64.2	59.9	0.0
2019 07/18 12:45	49.2	102.3	261.4	12.7	30.11	51.0	809.0	12.99	-121.6	0	-0.3	54.2	57.9	2980	29	0	0	0	65.0	60.1	0.0
2019 07/18 13:00	49.0	102.3	184.1	8.3	30.11	51.2	772.0	13.01	-121.1	0	0.2	56.0	58.3	2980	29	0	0	0	65.6	60.4	0.0
2019 07/18 13:15	49.5	102.4	296.8	12.4	30.11	51.2	761.0	13.01	-120.6	0	0.5	55.1	58.8	2980	29	0	0	0	66.1	60.5	0.0
2019 07/18 13:30	50.3	102.7	238.5	10.2	30.11	51.4	759.0	12.98	-120.1	0	-0.2	56.9	59.6	2980	29	0	0	0	66.4	60.7	0.0
2019 07/18 13:45	49.3	96.4	257.1	16.1	30.12	51.5	799.0	12.99	-119.6	0	1.0	57.8	62.4	2980	29	0	0	0	67.0	61.1	0.0
2019 07/18 14:00	50.8	87.7	253.5	12.1	30.11	51.6	814.0	13.01	-119.0	0	0.0	58.7	61.3	2980	29	0	0	0	67.6	61.3	0.0
2019 07/18 14:15	52.6	87.7	243.2	8.3	30.11	51.8	739.0	13.00	-118.4	0	-0.1	57.8	60.1	2980	29	0	0	0	68.1	61.5	0.0
2019 07/18 14:30	51.5	85.0	293.7	11.8	30.11	52.0	780.0	13.01	-117.8	0	-0.0	59.6	61.4	2980	29	0	0	0	68.6	61.5	0.0
2019 07/18 14:45	52.1	80.1	305.4	12.6	30.12	52.0	743.0	13.01	-117.1	0	-0.3	56.9	60.6	2980	29	0	0	0	68.7	61.4	0.0
2019 07/18 15:00	52.3	85.0	277.3	10.0	30.11	52.2	796.0	12.99	-116.5	0	-0.4	56.9	60.4	2980	29	0	0	0	68.7	61.3	0.0
2019 07/18 15:15	52.3	85.4	282.7	9.5	30.12	52.5	827.0	13.02	-115.6	0	-0.4	57.8	60.5	2980	29	0	0	0	69.2	61.3	0.0
2019 07/18 15:30	52.8	81.0	194.2	11.9	30.12	52.7	820.0	13.01	-114.9	0	-0.2	56.9	60.5	2980	29	0	0	0	69.5	61.3	0.0
2019 07/18 15:45	53.7	76.3	243.1	8.2	30.12	52.8	734.0	13.00	-113.9	0	-0.3	57.8	61.0	2980	29	0	0	0	69.8	61.3	0.0
2019 07/18 16:00	52.2	81.4	297.9	10.1	30.12	53.0	738.0	13.01	-113.0	0	-0.6	56.9	60.0	2980	29	0	0	0	70.1	61.2	0.0
2019 07/18 16:15	53.2	79.1	293.7	9.3	30.13	53.2	822.0	13.01	-111.9	0	-0.9	56.9	60.0	2980	29	0	0	0	70.5	61.2	0.0
2019 07/18 16:30	51.4	83.2	286.9	13.1	30.13	53.4	775.0	13.00	-110.8	0	-0.6	56.0	59.1	2980	29	0	0	0	70.6	61.1	0.0
2019 07/18 16:45	52.7	82.2	319.7	11.5	30.12	53.5	774.0	12.98	-109.6	0	-0.7	56.9	60.3	2981	29	0	0	0	70.8	61.0	0.0
2019 07/18 17:00	51.6	83.3	325.1	11.9	30.12	53.8	818.0	13.00	-108.4	0	-0.3	56.9	61.1	2981	29	0	0	0	70.9	60.7	0.0
2019 07/18 17:15	51.5	80.4	310.4	18.9	30.12	54.0	799.0	13.00	-107.1	0	-0.5	56.9	62.1	2981	29	0	0	0	70.9	60.6	0.0
2019 07/18 17:30	50.5	83.0	199.9	10.8	30.13	54.3	805.0	12.99	-105.6	0	-0.9	56.9	63.3	2981	29	0	0	0	71.3	60.6	0.0
2019 07/18 17:45	51.7	77.8	283.0	10.6	30.12	54.6	774.0	13.00	-104.0	0	-0.7	56.0	60.9	2981	29	0	0	0	71.7	60.5	0.0
2019 07/18 18:00	51.7	80.3	209.2	10.4	30.12	54.8	821.0	13.00	-102.3	0	-0.9	56.0	61.9	2981	29	0	0	0	71.9	60.4	0.0
2019 07/18 18:15	50.6	81.1	347.6	10.5	30.12	55.0	827.0	12.98	-100.6	0	-0.6	54.2	61.2	2981	29	0	0	0	71.8	60.3	0.0
2019 07/18 18:30	50.4	82.8	317.6	6.1	30.13	55.2	898.0	12.98	-98.9	0	-0.6	53.3	60.5	2981	29	0	0	0	71.7	60.2	0.0
2019 07/18 18:45	49.9	83.4	274.4	4.7	30.13	55.5	774.0	12.99	-97.0	0	-0.5	53.3	60.3	2981	29	0	0	0	71.5	60.1	0.0
2019 07/18 19:00	50.1	81.9	290.7	6.5	30.13	55.8	793.0	12.98	-95.3	0	-0.4	54.2	63.2	2981	29	0	0	0	71.1	59.9	0.0
2019 07/18 19:15	49.5	82.8	307.1	5.6	30.13	56.0	835.0	12.98	-93.9	0	-0.6	54.2	60.4	2981	29	0	0	0	70.5	59.7	0.0
2019 07/18 19:30	49.0	85.0	6.7	8.0	30.14	56.2	784.0	13.02	-92.4	0	-0.6	53.3	58.6	2981	29	0	0	0	70.2	59.6	0.0
2019 07/18 19:45	48.1	86.9	282.5	6.0	30.15	56.4	805.0	12.98	-90.9	0	-0.6	52.4	57.7	2981	29	0	0	0	69.6	59.3	0.0
2019 07/18 20:00	47.6	90.9	287.4	9.8	30.15	56.5	925.0	12.99	-89.8	0	-0.6	51.5	56.5	2981	29	0	0	0	69.0	59.1	0.0
2019 07/18 20:15	46.0	94.9	212.1	6.9	30.15	56.7	881.0	13.02	-88.7	0	-0.5	49.7	55.1	2981	29	0	0	0	68.3	58.8	0.0
2019 07/18 20:30	45.5	97.2	242.4	7.7	30.15	56.9	852.0	12.99	-88.0	0	-0.4	48.8	54.4	2982	29	0	0	0	68.0	58.8	0.0
2019 07/18 20:45	44.8	98.7	258.9	10.2	30.15	56.9	346.4	13.01	-87.6	0	-0.5	47.9	53.3	2983	29	0	0	0	67.4	58.6	0.0
2019 07/18 21:00	44.3	99.5	312.6	13.2	30.15	57.0	70.9	12.99	-87.4	0	-0.3	47.0	52.9	2992	29	0	0	0	66.8	58.3	0.0
2019 07/18 21:15	44.1	99.5	299.5	12.5	30.16	57.1	5.4	13.01	-87.5	0	-0.5	47.0	52.0	2995	29	0	0	0	66.0	58.0	0.0
2019 07/18 21:30	43.9	100.3	296.5	6.2	30.16	57.1	0.3	13.00	-88.0	0	-0.4	46.1	50.4	2998	29	0	0	0	65.5	57.8	0.0
2019 07/18 21:45	43.5	98.6	311.3	9.9	30.16	57.1	0.0	12.99	-88.7	0	-0.4	46.1	51.5	3003	29	0	0	0	64.8	57.6	0.0
2019 07/18 22:00	43.0	99.5	330.5	9.3	30.16	57.1	0.0	12.99	-89.7	0	-0.4	45.2	50.6	3014	29	0	0	0	64.4	57.5	0.0
2019 07/18 22:15	42.6	99.4	323.0	8.1	30.15	56.9	-0.3	13.01	-90.9	0	-0.5	44.3	49.7	3019	29	0	0	0	63.6	57.3	0.0
2019 07/18 22:30	42.3	100.4	303.0	10.9	30.15	56.9	0.0	12.97	-92.3	0	-0.6	44.3	50.1	3023	29	0	0	0	63.0	57.0	0.0
2019 07/18 22:45	42.1	100.6	295.8	8.3	30.15	56.7	0.0	12.99	-93.7	0	-0.7	44.3	49.5	3024	29	0	0	0	62.8	56.8	0.0
2019 07/18 23:00	41.8	100.3	303.8	8.6	30.14	56.7	0.0	12.99	-95.3	0	-0.6	44.3	48.8	3024	29	0	0	0	62.2	56.6	0.0
2019 07/18 23:15	41.8	97.0	301.5	10.1	30.14	56.5	0.0	13.01	-96.9	0	-0.6	44.3	48.6	3024	29	0	0	0	61.9	56.4	0.0
2019 07/18 23:30	41.7	96.5	287.7	10.5	30.13	56.3	-0.3	13.00	-98.6	0	-0.6	44.3	48.4	3024	29	0	0	0	61.7	56.2	0.0
2019 07/18 23:45	41.5	96.2	280.0	7.4	30.13	56.1	-0.3	12.98	-100.2	0	-0.5	43.4	48.3	3024	29	0	0	0	61.2	56.0	0.0
2019 07/19 00:00	41.3	95.7	302.7	10.9	30.12	55.9	0.0	13.01	-101.8	0	-0.7	43.4	47.8	3024	29	0	0	0	60.6	55.8	0.0
2019 07/19 00:15	41.2	95.0	325.4	8.6	30.12	55.6	-0.3	13.00	-103.4	0	-0.3	43.4	47.8	3037	29	0	0	0	60.4	55.6	0.0
2019 07/19 00:30	41.0	95.2	307.0	11.3	30.12	55.4	0.0	13.01	-105.0	0	-0.9	42.5	47.5	3037	29	0	0	0	60.2	55.4	0.0
2019 07/19 00:45	40.7	95.6	307.8	9.5	30.12	55.2	0.0	12.99	-106.4	0	-0.3	42.5	47.0	3039	29	0	0	0	59.7	55.1	0.0
2019 07/19 01:00	40.6	96.1	304.5	10.7	30.12	55.0	0.0	13.01	-107.9	0	-0.6	42.5	46.9	3041	29	0	0	0	59.3	54.9	0.0
2019 07/19 01:15	40.4	97.9	302.7	10.4	30.11	54.8	0.0	13.01	-109.4	0	-0.5	42.5	46.6	3041	29	0	0	0	59.1	54.8	0.0
2019 07/19 01:30	40.2	99.7	308.0	12.2	30.11	54.4	0.0	12.99	-110.8	0	-0.4	41.6	46.6	3041	29	0	0	0	58.6	54.5	0.0
2019 07/19 01:45	40.0	100.0	295.6	11.9	30.10	54.1	0.0	12.99	-112.2	0	-0.9	41.6	46.6	3041	29	0	0	0	58.4	54.3	0.0
2019 07/19 02:00	39.6	101.0	290.0	13.1	30.10	53.9	0.0	12.99	-113.4	0	-0.3	41.6	46.1	3041	29	0	0	0	57.9	54.1	0.0
2019 07/19 02:15	39.6	101.3	282.9	13.3	30.09	53.7	0.0	12.99	-114.6	0	-0.3	41.6	45.0	3041	29	0	0	0	57.9	54.1	0.0
2019 07/19 02:30	39.6	101.0	282.4	12.6	30.09	53.4	0.0	13.01	-115.8	0	-0.7	41.6	44.2	3041	29	0	0	0	57.2	53.5	0.0
2019 07/19 02:45	39.4	101.6	283.4	12.7	30.08	53.1	0.0	13.01	-116.9	0	-0.4	40.7	45.1	3041	29	0	0	0	56.8	53.3	0.0
2019 07/19 03:00	39.1	101.9	286.6	9.9	30.08	52.9	-0.3	12.99	-118.0	0	-0.5	40.7	45.0	3041	29	0	0	0	56.8	53.3	0.0
2019 07/19 03:15	38.9	102.0	295.2	8.2	30.08	52.7	0.0	12.99	-119.2	0	-0.6	40.7	44.4	3043	29	0	0	0	56.1	52.9	0.0
2019 07/19 03:30	38.9	102.0	302.9	6.7	30.09	52.3	0.0	13.01	-120.1	0	-0.4	40.7	44.8	3044	29	0	0	0	55.9	52.8	0.0
2019 07/19 03:45	38.8	102.0	288.5	5.9	30.08	52.0	0.0	12.99	-121.0	0	-0.3	40.7	44.7	3047	29	0	0	0	55.6	52.5	0.0
2019 07/19 04:00	38.8	101.9	292.2	7.7	30.08	51.8	0.0	13.00	-122.0	0	-0.4	40.7	44.8	3051	29	0	0	0	55.2	52.4	0.0
2019 07/19 04:15	38.7	101.9	297.4	8.8	30.08	51.5	-0.3	12.99	-122.8	0	-0.1	39.8	44.4	3056	29	0	0	0	54.9	52.2	0.0
2019 07/19 04:30	38.8	101.9	309.2	10.2	30.08	51.2	0.0	13.01	-123.6	0	-0.5	40.7	44.3	3059	29	0	0	0	54.6	51.9	0.0
2019 07/19 04:45	38.5	101.9	292.0	10.4	30.08	51.0	0.0	12.98	-124.3	0	-0.4	39.8	44.1	3059	29	0	0	0	54.2	51.7	0.0
2019 07/19 05:00	38.4	101.9	301.2	14.1	30.07	50.6	0.3	13.00	-125.0	0	-0.5	40.7	44.1	3059	29	0	0	0	54.1	51.6	0.0
2019 07/19 05:15	38.3	101.5	308.5	12.9	30.07	50.4	4.1	13.00	-125.6	0	-0.7	40.7	43.6	3059	29	0	0	0	53.8	51.3	0.0
2019 07/19 05:30	38.2	100.8	330.1	14.2	30.07	50.2	40.0	12.98	-126.1	0	-0.2	39.8	43.6	3059	29	0	0	0	53.4	51.1	0.0
2019 07/19 05:45	38.1	100.0	339.2	15.8	30.06	50.0	217.8	13.01	-126.7	0	-0.7	40.7	43.6	3059	29	0	0	0	53.1	50.9	0.0
2019 07/19 06:00	38.2	96.9	333.1	13.7	30.06	49.6	336.3	13.01	-127.2	0	-0.9	40.7	42.3	3059	29	0	0	0	52.8	50.6	0.0
2019 07/19 06:15	38.4	94.7	327.0	12.1	30.06	49.4	534.8	13.00	-127.7	0	-0.4	40.7	41.3	3059	29	0	0	0	52.5	50.4	0.0
2019 07/19 06:30	39.0	88.6	331.3	11.8	30.06	49.1	585.7	13.01	-128.2	0	-0.8	42.5	41.5	3059	29	0	0	0	52.3	50.4	0.0
2019 07/19 06:45	39.2	88.4	338.3	9.8	30.06	48.9	567.7	13.01	-128.6	0	-1.1	45.2	44.4	3060	29	0	0	0	52.1	50.1	0.0
2019 07/19 07:00	39.4	88.9	341.0	7.5	30.06	48.7	578.2	12.98	-128.9	0	-0.7	45.2	45.7	3060	29	0	0	0	51.7	49.8	0.0
2019 07/19 07:15	39.3	89.9	333.4	8.9	30.06	48.5	603.7	13.00	-129.3	0	-0.6	45.2	46.2	3060	29	0	0	0	51.6	49.7	0.0
2019 07/19 07:30	39.3	91.4	327.1	7.4	30.06	48.4	625.1	13.00	-129.4	0	-0.6	45.2	46.6	3060	29	0	0	0	51.5	49.6	0.0
2019 07/19 07:45	39.4	88.2	319.7	7.7	30.06	48.2	641.3	13.00	-129.7	0	-0.9	46.1	46.8	3060	29	0	0	0	51.4	49.6	0.0
2019 07/19 08:00	40.1	88.2	319.7	2.4	30.06	48.1	652.2	13.01	-129.8	0	-1.1	47.9	47.4	3060	29	0	0	0	51.4	49.5	0.0
2019 07/19 08:15	40.8	89.4	318.1	0.4	30.07	48.1	659.4	12.98	-129.8	0	-0.6	46.1	48.0	3060	29	0	0	0	51.4	49.5	0.0
2019 07/19 08:30	41.4	89.0	296.5	1.4	30.07	48.0	666.5	12.98	-129.8	0	-0.7	47.9	48.3	3060	29	0	0	0	51.4	49.5	0.0
2019 07/19 08:45	42.3	86.6	339.1	1.6	30.07	47.9	672.6	12.98	-129.8	0	-0.8	48.8	49.0	3060	29	0	0	0	51.5	49.6	0.0
2019 07/19 09:00	43.7	71.9	351.1	1.1	30.07	47.9	679.1	13.00	-129.8	0	-0.9	49.7	49.4	3060	29	0	0	0	51.5	49.6	0.0
2019 07/19 09:15	43.2	75.1	23.6	3.1	30.08	47.8	684.8	13.00	-129.8	0	-0.2	48.8	50.1	3060	29	0	0	0	51.9	49.7	0.0
2019 07/19 09:30	44.9	80.2	8.7	4.9	30.08	47.9	692.3	12.98	-129.7	0	-0.0	48.8	50.6	3060	29	0	0	0	52.1	50.0	0.0
2019 07/19 09:45	44.8	83.3	340.0	2.6	30.08	47.9	698.3	12.98	-129.5	0	-0.4	50.6	51.3	3060	29	0	0	0	52.5	50.2	0.0
2019 07/19 10:00	45.3	86.3	343.5	7.2	30.09	48.0	707.0	12.98	-129.3	0	-0.3	50.6	52.6	3060	29	0	0	0	53.0	50.6	0.0
2019 07/19 10:15	46.3	74.4	3.8	9.5	30.08	48.0	715.0	13.01	-129.2	0	-0.2	52.4	52.4	3060	29	0	0	0	53.9	51.1	0.0
2019 07/19 10:30	47.7	67.9	354.3	7.7	30.09	48.1	722.0	12.99	-128.9	0	-0.2	53.3	53.4	3060	29	0	0	0	54.3	51.4	0.0
2019 07/19 10:45	48.4	63.7	319.6	4.2	30.09	48.2	728.0	13.02	-128.7	0	-0.4	53.3	54.0	3060	29	0	0	0	55.6	52.1	0.0
2019 07/19 11:00	48.9	55.5	336.0	5.5	30.09	48.4	734.0	13.00	-128.3	0	-0.3	54.2	55.5	3060	29	0	0	0	57.2	53.2	0.0
2019 07/19 11:15	49.8	57.1	351.9	4.9	30.09	48.5	740.0	13.00	-128.1	0	-0.4	54.2	56.6	3060	29	0	0	0	58.6	54.2	0.0
2019 07/19 11:30	50.4	70.7	51.1	2.9	30.10	48.7	613.5	13.00	-127.7	0	-0.2	56.9	57.8	3060	29	0	0	0	59.4	54.7	0.0
2019 07/19 11:45	50.4	68.1	234.5	4.4	30.10	48.8	741.0	12.98	-127.3	0	-0.5	56.9	57.0	3060	29	0	0	0	61.3	55.6	0.0
2019 07/19 12:00	49.9	65.0	281.5	2.8	30.10	48.9	668.5	13.01	-127.0	0	-0.8	58.7	58.4	3060	29	0	0	0	63.2	56.5	0.0
2019 07/19 12:15	51.0	58.4	318.1	7.8	30.11	49.1	752.0	13.01	-126.6	0	-0.2	58.7	59.4	3060	29	0	0	0	64.7	57.2	0.0
2019 07/19 12:30	51.5	54.4	324.0	9.3	30.11	49.3	755.0	12.99	-126.2	0	-1.3	60.5	59.7	3060	29	0	0	0	66.1	57.8	0.0
2019 07/19 12:45	52.5	44.0	331.6	14.8	30.11	49.5	759.0	13.00	-125.8	0	0.2	59.6	60.2	3060	29	0	0	0	67.2	58.4	0.0
2019 07/19 13:00	54.3	42.0	293.5	7.7	30.11	49.7	761.0	13.00	-125.4	0	-0.8	60.5	60.0	3061	29	0	0	0	68.1	58.8	0.0
2019 07/19 13:15	53.2	36.6	275.5	8.8	30.11	50.0	759.0	13.00	-124.9	0	-0.4	61.4	61.2	3061	29	0	0	0	68.7	59.3	0.0
2019 07/19 13:30	55.8	33.5	324.7	7.7	30.11	50.2	756.0	12.98	-124.4	0	0.0	61.4	61.6	3061	29	0	0	0	69.1	59.4	0.0
2019 07/19 13:45	54.8	41.8	232.6	7.2	30.11	50.3	756.0	12.98	-123.9	0	-0.4	62.3	62.2	3061	29	0	0	0	69.5	59.9	0.0
2019 07/19 14:00	54.9	40.9	310.3	4.5	30.12	50.4	761.0	13.00	-123.4	0	-0.5	64.1	63.2	3061	29	0	0	0	70.0	60.1	0.0
2019 07/19 14:15	54.7	45.5	325.7	7.1	30.12	50.6	768.0	13.00	-122.9	0	-0.4	64.1	65.5	3061	29	0	0	0	70.5	60.2	0.0
2019 07/19 14:30	54.5	44.9	325.5	12.0	30.12	50.9	776.0	12.99	-122.5	0	-0.7	63.2	64.5	3061	29	0	0	0	70.8	60.2	0.0
2019 07/19 14:45	55.5	41.2	291.2	7.2	30.12	51.0	781.0	13.01	-121.8	0	0.0	63.2	64.7	3061	29	0	0	0	70.9	60.1	0.0
2019 07/19 15:00	56.5	41.7	312.9	11.5	30.12	51.2	785.0	12.99	-121.2	0	-0.3	63.2	65.4	3061	29	0	0	0	71.0	60.0	0.0
2019 07/19 15:15	57.1	43.4	357.0	13.3	30.12	51.5	789.0	13.00	-120.5	0	-0.2	64.1	64.8	3061	29	0	0	0	71.3	60.0	0.0
2019 07/19 15:30	56.1	43.6	313.5	5.3	30.13	51.7	791.0	13.01	-119.8	0	-0.2	63.2	65.4	3061	29	0	0	0	71.2	60.0	0.0
2019 07/19 15:45	57.7	43.1	357.3	6.6	30.13	52.0	792.0	12.99	-118.9	0	-0.5	62.3	65.8	3061	29	0	0	0	71.5	60.0	0.0
2019 07/19 16:00	56.1	44.2	340.6	11.9	30.13	52.2	790.0	13.01	-117.9	0	0.2	63.2	66.7	3061	29	0	0	0	71.7	60.0	0.0
2019 07/19 16:15	58.2	42.5	253.7	8.3	30.14	52.4	788.0	13.01	-116.9	0	-1.0	64.1	68.1	3061	29	0	0	0	72.1	60.0	0.0
2019 07/19 16:30	56.9	43.0	351.5	14.2	30.14	52.8	788.0	12.99	-115.7	0	-0.4	63.2	67.8	3061	29	0	0	0	72.3	60.0	0.0
2019 07/19 16:45	56.9	44.1	281.1	10.6	30.14	53.1	788.0	12.99	-114.4	0	-0.8	65.0	68.5	3061	29	0	0	0	72.6	59.9	0.0
2019 07/19 17:00	58.0	44.1	330.2	8.6	30.14	53.4	789.0	13.02	-112.8	0	-0.7	64.1	69.1	3061	29	0	0	0	73.4	60.2	0.0
2019 07/19 17:15	57.8	46.0	314.3	12.2	30.15	53.7	789.0	13.01	-111.1	0	-0.7	62.3	69.0	3061	29	0	0	0	74.0	60.2	0.0
2019 07/19 17:30	57.7	47.9	316.1	15.2	30.14	54.1	789.0	13.01	-109.3	0	-0.7	63.2	69.4	3061	29	0	0	0	74.3	60.4	0.0
2019 07/19 17:45	57.1	53.6	293.9	10.2	30.15	54.4	788.0	13.01	-107.2	0	-0.9	63.2	69.5	3149	29	0	0	0	74.5	60.5	0.0
2019 07/19 18:00	57.6	54.7	308.8	10.8	30.15	54.8	787.0	12.99	-104.9	0	-1.0	62.3	69.3	3523	29	0	0	0	75.1	60.6	0.0
2019 07/19 18:15	56.9	57.8	294.5	10.7	30.15	55.2	801.0	12.99	-102.4	0	-1.1	61.4	68.5	3991	29	0	0	0	75.4	60.7	0.0
2019 07/19 18:30	57.2	58.1	52.6	7.9	30.16	55.5	913.0	12.99	-99.7	0	-0.8	61.4	67.7	4462	29	0	0	0	75.3	60.7	0.0
2019 07/19 18:45	55.9	60.0	349.8	12.6	30.16	55.9	736.0	13.01	-97.0	0	-0.6	61.4	67.4	4942	29	0	0	0	75.5	60.9	0.0
2019 07/19 19:00	55.0	63.0	305.2	16.2	30.16	56.3	759.0	12.99	-94.2	0	-0.5	60.5	66.7	5319	29	0	0	0	75.0	60.9	0.0
2019 07/19 19:15	54.8	64.7	293.7	13.8	30.17	56.7	932.0	12.99	-91.4	0	-0.5	59.6	65.4	5540	29	0	0	0	74.6	60.7	0.0
2019 07/19 19:30	54.2	67.6	308.8	11.5	30.17	56.9	826.0	13.00	-88.6	0	-0.5	58.7	63.8	6219	29	0	0	0	74.3	60.5	0.0
2019 07/19 19:45	53.1	68.9	325.1	12.6	30.17	57.4	930.0	12.99	-85.8	0	-0.6	57.8	62.4	6427	29	0	0	0	73.5	60.5	0.0
2019 07/19 20:00	52.3	71.5	322.3	13.7	30.17	57.6	923.0	13.01	-83.0	0	-0.7	56.9	60.1	6894	29	0	0	0	72.6	60.3	0.0
2019 07/19 20:15	51.7	72.5	331.1	13.3	30.18	58.0	906.0	13.02	-80.3	0	-0.6	55.1	59.2	7209	29	0	0	0	71.8	60.1	0.0
2019 07/19 20:30	51.1	74.2	331.0	11.7	30.18	58.2	836.0	12.99	-77.9	0	-0.5	54.2	57.9	7619	29	0	0	0	71.0	59.9	0.0
2019 07/19 20:45	50.4	72.9	314.4	11.5	30.18	58.4	581.5	13.00	-75.8	0	-0.6	53.3	57.3	8079	29	0	0	0	70.2	59.6	0.0
2019 07/19 21:00	50.1	74.6	319.7	4.2	30.19	58.6	125.5	13.01	-74.1	0	-0.4	52.4	56.5	8374	29	0	0	0	69.5	59.3	0.0
2019 07/19 21:15	51.7	66.0	109.0	2.6	30.19	58.9	20.4	12.99	-73.1	0	-0.3	51.5	55.2	8839	29	0	0	0	68.7	59.1	0.0
2019 07/19 21:30	52.6	64.3	83.4	3.3	30.20	59.0	2.4	13.02	-72.9	0	-0.3	50.6	54.0	9320	29	0	0	0	68.5	59.0	0.0
2019 07/19 21:45	52.3	64.0	104.0	8.5	30.20	59.1	0.3	13.01	-73.2	0	-0.4	50.6	53.5	9800	29	0	0	0	68.0	58.6	0.0
2019 07/19 22:00	52.1	65.8	102.9	8.5	30.21	59.1	0.0	12.98	-74.1	0	-0.7	50.6	51.9	10178	29	0	0	0	67.2	58.3	0.0
2019 07/19 22:15	51.6	67.2	97.4	12.8	30.20	59.1	0.0	12.99	-75.4	0	-0.6	49.7	51.2	10638	29	0	0	0	66.6	58.0	0.0
2019 07/19 22:30	51.4	66.2	89.0	15.9	30.20	59.1	0.0	12.99	-77.1	0	-1.4	49.7	50.2	11118	29	0	0	0	65.9	57.7	0.0
2019 07/19 22:45	51.0	66.3	92.0	15.1	30.20	59.1	0.0	13.01	-79.1	0	-0.2	51.5	49.7	11598	29	0	0	0	65.3	57.5	0.0
2019 07/19 23:00	50.5	66.6	77.0	17.2	30.20	58.9	0.0	13.00	-81.4	0	-1.4	50.6	48.7	11981	29	0	0	0	64.5	57.2	0.0
2019 07/19 23:15	50.3	66.0	88.2	19.3	30.20	58.8	-0.3	12.98	-83.8	0	-0.3	51.5	48.7	12425	29	0	0	0	63.8	56.8	0.0
2019 07/19 23:30	49.8	67.4	82.4	22.1	30.19	58.6	0.0	12.98	-86.3	0	-0.2	50.6	47.7	12906	29	0	0	0	63.5	56.7	0.0
2019 07/19 23:45	49.6	66.4	91.7	24.4	30.19	58.4	0.0	12.97	-89.0	0	-0.3	50.6	48.0	13384	29	0	0	0	62.8	56.4	0.0
2019 07/20 00:00	49.3	67.8	88.5	22.6	30.18	58.2	0.0	12.99	-91.5	0	-0.4	49.7	48.3	13737	29	0	0	0	62.3	56.0	0.0
2019 07/20 00:15	49.0	68.3	91.8	23.2	30.18	57.9	0.0	12.99	-94.1	0	-0.1	49.7	47.6	14183	29	0	0	0	61.8	55.8	0.0
2019 07/20 00:30	48.5	69.3	87.1	23.2	30.18	57.6	0.0	13.00	-96.7	0	-0.4	49.7	48.0	14633	29	0	0	0	61.4	55.5	0.0
2019 07/20 00:45	48.5	69.2	86.8	25.2	30.18	57.4	0.0	12.97	-99.1	0	-0.1	48.8	48.0	15047	29	0	0	0	61.0	55.2	0.0
2019 07/20 01:00	48.1	70.4	85.0	22.2	30.18	57.0	0.0	12.98	-101.6	0	-0.0	48.8	47.8	15252	29	0	0	0	60.6	54.9	0.0
2019 07/20 01:15	48.2	68.9	97.1	27.2	30.17	56.7	-0.3	12.98	-103.8	0	-0.3	48.8	48.0	15678	29	0	0	0	60.2	54.7	0.0
2019 07/20 01:30	47.9	69.3	90.4	24.9	30.16	56.5	-0.3	13.01	-105.8	0	-0.2	48.8	48.4	15809	29	0	0	0	60.0	54.6	0.0
2019 07/20 01:45	48.1	68.7	90.4	27.2	30.16	56.1	0.0	13.01	-107.9	0	-0.2	48.8	47.9	16399	29	0	0	0	59.5	54.3	0.0
2019 07/20 02:00	47.9	68.9	91.5	25.6	30.16	55.9	0.0	12.99	-109.7	0	-0.2	48.8	48.0	16742	29	0	0	0	59.2	54.1	0.0
2019 07/20 02:15	47.8	68.7	87.4	26.9	30.15	55.4	0.0	12.99	-111.6	0	-0.2	48.8	47.0	17077	29	0	0	0	58.7	53.8	0.0
2019 07/20 02:30	47.8	69.5	84.6	27.1	30.14	55.2	0.0	12.99	-113.3	0	-0.5	48.8	47.4	17461	29	0	0	0	58.4	53.5	0.0
2019 07/20 02:45	47.8	68.4	89.8	27.6	30.14	54.8	-0.3	13.01	-114.7	0	-0.3	48.8	47.1	17859	29	0	0	0	57.9	53.3	0.0
2019 07/20 03:00	47.8	66.8	91.0	25.6	30.14	54.6	0.0	13.01	-116.2	0	-0.3	48.8	46.6	18203	29	0	0	0	57.5	53.1	0.0
2019 07/20 03:15	47.7	66.2	97.9	25.6	30.14	54.1	-0.3	12.99	-117.4	0	-0.1	47.9	46.3	18540	29	0	0	0	57.2	52.9	0.0
2019 07/20 03:30	47.7	67.8	92.0	24.1	30.13	53.9	0.0	12.99	-118.7	0	-0.1	47.9	45.8	18939	29	0	0	0	56.9	52.8	0.0
2019 07/20 03:45	47.3	69.8	88.7	23.9	30.13	53.5	0.0	12.99	-119.8	0	-0.3	47.9	44.7	19377	29	0	0	0	56.6	52.5	0.0
2019 07/20 04:00	47.2	69.2	91.1	24.5	30.12	53.3	0.0	13.01	-120.7	0	-0.3	47.9	44.2	19715	29	0	0	0	56.2	52.2	0.0
2019 07/20 04:15	47.1	69.2	91.4	24.8	30.12	53.1	0.0	12.99	-121.7	0	-0.4	47.9	43.8	20157	29	0	0	0	56.0	52.0	0.0
2019 07/20 04:30	47.2	64.1	87.3	24.7	30.12	52.7	0.0	12.99	-122.6	0	-0.5	47.9	43.5	20597	29	0	0	0	55.6	51.7	0.0
2019 07/20 04:45	47.0	62.6	87.6	23.3	30.12	52.5	0.0	12.99	-123.4	0	-0.4	47.9	43.1	20936	29	0	0	0	55.2	51.5	0.0
2019 07/20 05:00	47.2	61.2	90.4	22.6	30.11	52.3	0.3	13.01	-124.2	0	-0.4	47.9	43.0	21224	29	0	0	0	55.0	51.3	0.0
2019 07/20 05:15	47.1	61.6	87.4	21.9	30.11	51.9	4.4	13.01	-124.9	0	-0.3	47.0	41.8	21637	29	0	0	0	54.6	51.1	0.0
2019 07/20 05:30	47.0	60.1	82.8	20.9	30.11	51.6	43.4	12.99	-125.5	0	-0.2	47.0	41.5	22115	29	0	0	0	54.5	51.0	0.0
2019 07/20 05:45	47.1	60.5	88.7	20.2	30.11	51.4	211.7	12.99	-126.1	0	-0.3	47.0	41.1	22588	29	0	0	0	54.2	50.7	0.0
2019 07/20 06:00	47.1	59.5	83.9	20.8	30.10	51.2	331.2	12.99	-126.7	0	-0.4	47.9	40.9	22961	29	0	0	0	53.8	50.5	0.0
2019 07/20 06:15	47.1	61.5	85.7	21.8	30.10	50.9	534.1	12.99	-127.2	0	-0.4	48.8	40.8	23417	29	0	0	0	53.4	50.3	0.0
2019 07/20 06:30	47.0	63.0	85.9	22.0	30.10	50.6	596.2	12.99	-127.7	0	-0.4	49.7	41.7	23897	29	0	0	0	53.2	50.1	0.0
2019 07/20 06:45	47.0	63.0	87.6	22.8	30.10	50.4	585.7	12.99	-128.2	0	-0.9	51.5	46.6	24377	29	0	0	0	53.0	50.0	0.0
2019 07/20 07:00	46.9	65.0	90.3	22.6	30.10	50.2	603.0	12.97	-128.6	0	-0.5	51.5	49.3	24759	29	0	0	0	52.9	49.8	0.0
2019 07/20 07:15	46.5	66.7	92.1	23.6	30.10	50.0	624.7	12.98	-128.8	0	-0.4	50.6	50.2	25218	29	0	0	0	52.8	49.6	0.0
2019 07/20 07:30	46.7	64.9	91.9	24.7	30.10	50.0	641.0	13.00	-128.9	0	-0.3	51.5	50.8	25697	29	0	0	0	52.8	49.6	0.0
2019 07/20 07:45	46.6	64.1	87.7	24.5	30.11	49.7	653.2	12.98	-129.1	0	-0.7	53.3	51.4	26176	29	0	0	0	52.5	49.6	0.0
2019 07/20 08:00	46.6	68.1	92.0	25.5	30.11	49.7	661.0	13.00	-129.2	0	-0.7	54.2	52.1	26507	29	0	0	0	53.1	49.6	0.0
2019 07/20 08:15	47.1	67.5	91.9	23.6	30.11	49.6	665.8	12.98	-129.2	0	-0.6	54.2	52.8	26975	29	0	0	0	53.2	49.7	0.0
2019 07/20 08:30	47.6	66.4	97.0	24.6	30.11	49.5	671.2	13.00	-129.2	0	-0.4	54.2	53.4	27440	29	0	0	0	53.5	49.8	0.0
2019 07/20 08:45	47.7	65.3	84.7	24.4	30.12	49.5	675.9	12.99	-129.2	0	-0.7	56.0	54.0	27919	29	0	0	0	53.7	50.1	0.0
2019 07/20 09:00	48.1	64.6	74.4	25.8	30.12	49.5	681.4	12.99	-129.2	0	-0.9	56.9	55.0	28307	29	0	0	0	54.0	50.4	0.0
2019 07/20 09:15	48.7	63.5	101.7	25.4	30.11	49.5	687.5	13.00	-129.1	0	-0.2	55.1	55.6	28762	29	0	0	0	54.3	50.9	0.0
2019 07/20 09:30	49.0	58.6	78.6	26.4	30.12	49.5	695.3	13.00	-128.9	0	-0.3	56.0	55.9	29238	29	0	0	0	54.7	51.1	0.0
2019 07/20 09:45	49.8	59.9	100.4	21.5	30.12	49.6	702.0	13.00	-128.8	0	-0.7	56.9	56.8	29718	29	0	0	0	55.1	51.5	0.0
2019 07/20 10:00	50.3	52.3	93.7	26.2	30.12	49.7	711.0	12.98	-128.6	0	-0.2	56.9	58.0	30095	29	0	0	0	55.8	52.0	0.0
2019 07/20 10:15	50.4	59.8	94.8	24.7	30.12	49.7	719.0	12.98	-128.4	0	-0.2	57.8	58.5	30556	29	0	0	0	56.5	52.8	0.0
2019 07/20 10:30	50.8	58.8	110.4	27.8	30.12	50.0	727.0	13.02	-128.2	0	-0.2	57.8	59.2	31036	29	0	0	0	57.5	53.7	0.0
2019 07/20 10:45	50.8	57.1	88.2	28.0	30.13	50.0	733.0	13.00	-128.0	0	-0.9	57.8	60.7	31516	29	0	0	0	58.4	55.0	0.0
2019 07/20 11:00	51.7	56.7	85.4	26.7	30.13	50.2	738.0	12.98	-127.7	0	-0.6	58.7	61.0	31902	29	0	0	0	59.5	56.2	0.0
2019 07/20 11:15	52.1	57.1	93.9	26.7	30.14	50.2	743.0	12.98	-127.5	0	0.0	59.6	61.5	32359	29	0	0	0	60.6	57.0	0.0
2019 07/20 11:30	52.6	58.0	99.7	24.5	30.14	50.4	747.0	12.98	-127.2	0	-0.4	60.5	62.1	32840	29	0	0	0	61.3	57.6	0.0
2019 07/20 11:45	53.2	57.2	117.6	22.4	30.14	50.6	751.0	13.02	-127.0	0	-1.2	63.2	62.7	33320	29	0	0	0	62.7	58.7	0.0
2019 07/20 12:00	53.8	54.4	84.2	25.3	30.15	50.6	754.0	13.00	-126.6	0	0.1	64.1	63.6	33690	29	0	0	0	64.2	59.9	0.0
2019 07/20 12:15	54.5	54.6	82.3	22.2	30.15	50.8	755.0	12.98	-126.4	0	-0.6	64.1	65.2	34158	29	0	0	0	65.8	60.6	0.0
2019 07/20 12:30	55.0	52.5	98.2	19.4	30.15	51.0	758.0	13.00	-126.0	0	-0.7	65.0	65.1	34638	29	0	0	0	66.9	61.5	0.0
2019 07/20 12:45	55.8	52.2	103.1	22.0	30.15	51.1	761.0	12.97	-125.6	0	0.1	65.0	65.8	35118	29	0	0	0	68.1	62.3	0.0
2019 07/20 13:00	56.4	50.1	84.9	19.1	30.15	51.2	763.0	12.98	-125.3	0	-0.8	65.0	66.5	35505	29	0	0	0	69.2	62.9	0.0
2019 07/20 13:15	57.1	47.2	98.8	13.4	30.16	51.4	760.0	12.98	-125.0	0	-0.6	66.8	67.7	35962	29	0	0	0	69.9	63.3	0.0
2019 07/20 13:30	57.7	43.5	94.2	17.9	30.16	51.6	757.0	13.00	-124.6	0	0.2	65.9	68.7	36442	29	0	0	0	70.2	63.7	0.0
2019 07/20 13:45	58.2	41.9	91.2	20.2	30.16	51.6	757.0	12.99	-124.3	0	-1.3	68.6	69.0	36922	29	0	0	0	70.8	64.4	0.0
2019 07/20 14:00	59.3	42.0	33.5	15.9	30.16	51.8	762.0	12.99	-124.0	0	-0.2	67.7	68.7	37290	29	0	0	0	71.3	64.5	0.0

Where:
  YYYY   = Year
  MM/DD  = Month / Date
  hh:mm  = Hour  : Minute
  Temp   = Temperature outside       (F)              @ 5720', on tower
  Humid  = Humidity    outside       (%)              @ 5720'
  W_dir  = Wind direction / Azimuth  (degrees)        @ 5720'
  W_spd  = Wind speed                (miles per hour) @ 5720'
  Barom  = Sea-level air pressure    (inches of mercury)
  T_int  = Temperature (internal)    (F)              - inside barometer case
  Light  = Outside light level       (no units)       - 0 = dark, 1000 = bright
  Power  = Power supply rail         (Volts)
  Temp2  = Temperature (back-up)     (F)
  P2     = datalogger counter channel "P2" (to be static burst counter)
  Snow   = Snow depth,  mid-mountain (inches)         @ 5010'
  T_mid  = Temperature, mid-mountain (F)              @ 5010'
  T_base = Temperature @ south lodge (F)              @ 4700'
  Precip = Precipitation total       (inches)         @ 4800' (near US20 mp81)

Notes:
1999 07/17
   Barometric data in this listing should have an additional
   temperature correction applied to it, based on the sensor's
   internal temperature:

   P_corrected = Barom + (-0.0223 * T_int) + 0.8887  (inches Hg)

2004 07/03
   The air pressure correction equation has not been checked
   in a long time.  The air pressure reading is best used only
   to observe general trends.

2006 11/18
   Added precipitation gauge.  Depth is precipitation equivalent in water,
   for the water year (beginning October 1st) at the Hogg Pass
   SnoTel station.

2011 03/11
  Fixed data column title bug from adding "T_base" after "T_mid".
  If you notice a bug like this it will get fixed a whole lot sooner
  if you tell me about it.